<?xml version='1.0' encoding='UTF-8'?><gpx version="1.1" creator="JPX - https://github.com/jenetics/jpx" xmlns="http://www.topografix.com/GPX/1/1"><trk><trkseg><trkpt lat="44.27185353839503" lon="10.669979616900063"><ele>1163.0</ele><time>2026-03-22T10:12:28.999Z</time></trkpt><trkpt lat="44.2718541595518" lon="10.670109127712745"><ele>1163.0</ele><time>2026-03-22T10:12:30.999Z</time></trkpt><trkpt lat="44.27187004723057" lon="10.670295833062532"><ele>1163.0</ele><time>2026-03-22T10:12:32.999Z</time></trkpt><trkpt lat="44.27186464024079" lon="10.670540624434004"><ele>1163.0</ele><time>2026-03-22T10:12:34.999Z</time></trkpt><trkpt lat="44.271852657307285" lon="10.670650522993183"><ele>1162.6666666666667</ele><time>2026-03-22T10:12:35.999Z</time></trkpt><trkpt lat="44.27183915443436" lon="10.670769369948781"><ele>1162.3333333333335</ele><time>2026-03-22T10:12:36.999Z</time></trkpt><trkpt lat="44.27182834987457" lon="10.670889848842533"><ele>1162.0</ele><time>2026-03-22T10:12:37.999Z</time></trkpt><trkpt lat="44.27182283147442" lon="10.67100757594281"><ele>1161.6666666666667</ele><time>2026-03-22T10:12:38.999Z</time></trkpt><trkpt lat="44.27182108241942" lon="10.671117374687869"><ele>1161.3333333333333</ele><time>2026-03-22T10:12:39.999Z</time></trkpt><trkpt lat="44.27182332360593" lon="10.671221719639643"><ele>1161.0</ele><time>2026-03-22T10:12:40.999Z</time></trkpt><trkpt lat="44.27182861932181" lon="10.671334848238379"><ele>1160.8333333333333</ele><time>2026-03-22T10:12:41.999Z</time></trkpt><trkpt lat="44.27183639031138" lon="10.671449267740432"><ele>1160.6666666666667</ele><time>2026-03-22T10:12:42.999Z</time></trkpt><trkpt lat="44.271848311177955" lon="10.671563753300937"><ele>1160.5</ele><time>2026-03-22T10:12:43.999Z</time></trkpt><trkpt lat="44.271863861446604" lon="10.671676155350704"><ele>1160.3333333333335</ele><time>2026-03-22T10:12:44.999Z</time></trkpt><trkpt lat="44.27187813587317" lon="10.67178607788585"><ele>1160.1666666666667</ele><time>2026-03-22T10:12:45.999Z</time></trkpt><trkpt lat="44.271897147495665" lon="10.671893584625984"><ele>1160.0</ele><time>2026-03-22T10:12:46.999Z</time></trkpt><trkpt lat="44.27191093113373" lon="10.671987311286916"><ele>1158.8333333333335</ele><time>2026-03-22T10:12:47.999Z</time></trkpt><trkpt lat="44.27192222430092" lon="10.672141455335678"><ele>1157.6666666666667</ele><time>2026-03-22T10:12:49.999Z</time></trkpt><trkpt lat="44.27193415472253" lon="10.672260776628084"><ele>1156.5</ele><time>2026-03-22T10:12:51.999Z</time></trkpt><trkpt lat="44.271954494422204" lon="10.672380509220538"><ele>1155.3333333333333</ele><time>2026-03-22T10:12:53.999Z</time></trkpt><trkpt lat="44.271933596148486" lon="10.67249620188702"><ele>1154.1666666666665</ele><time>2026-03-22T10:12:57Z</time></trkpt><trkpt lat="44.271982941518374" lon="10.672577761668972"><ele>1153.0</ele><time>2026-03-22T10:13:20Z</time></trkpt><trkpt lat="44.27202874165031" lon="10.672470854698894"><ele>1153.0</ele><time>2026-03-22T10:13:24Z</time></trkpt><trkpt lat="44.27200156991163" lon="10.672294211903852"><ele>1153.0</ele><time>2026-03-22T10:13:26Z</time></trkpt><trkpt lat="44.27196477892136" lon="10.67210232719883"><ele>1153.0</ele><time>2026-03-22T10:13:27Z</time></trkpt><trkpt lat="44.271931304557036" lon="10.671955756846955"><ele>1153.0</ele><time>2026-03-22T10:13:28Z</time></trkpt><trkpt lat="44.27190177037462" lon="10.671809770317"><ele>1154.75</ele><time>2026-03-22T10:13:29Z</time></trkpt><trkpt lat="44.271875279751015" lon="10.671650326773209"><ele>1156.5</ele><time>2026-03-22T10:13:30Z</time></trkpt><trkpt lat="44.271853435921045" lon="10.671481396479058"><ele>1158.25</ele><time>2026-03-22T10:13:31Z</time></trkpt><trkpt lat="44.27183360053964" lon="10.67130622100871"><ele>1160.0</ele><time>2026-03-22T10:13:32Z</time></trkpt><trkpt lat="44.2718232446581" lon="10.67112762530776"><ele>1160.25</ele><time>2026-03-22T10:13:33Z</time></trkpt><trkpt lat="44.27181964668183" lon="10.670940190237898"><ele>1160.5</ele><time>2026-03-22T10:13:34Z</time></trkpt><trkpt lat="44.27183661369241" lon="10.670754831892122"><ele>1160.75</ele><time>2026-03-22T10:13:35Z</time></trkpt><trkpt lat="44.27184921178393" lon="10.670562255554568"><ele>1161.0</ele><time>2026-03-22T10:13:36Z</time></trkpt><trkpt lat="44.27187218082847" lon="10.670372188461597"><ele>1161.3333333333333</ele><time>2026-03-22T10:13:37Z</time></trkpt><trkpt lat="44.27188314829862" lon="10.670208443385086"><ele>1161.6666666666667</ele><time>2026-03-22T10:13:38Z</time></trkpt><trkpt lat="44.271882841998675" lon="10.670080030341852"><ele>1162.0</ele><time>2026-03-22T10:13:39Z</time></trkpt><trkpt lat="44.27188212856791" lon="10.66999159518703"><ele>1162.3333333333335</ele><time>2026-03-22T10:13:40Z</time></trkpt><trkpt lat="44.271879172397405" lon="10.669899458523592"><ele>1162.6666666666667</ele><time>2026-03-22T10:13:43Z</time></trkpt><trkpt lat="44.27186896635715" lon="10.669801094719107"><ele>1163.0</ele><time>2026-03-22T10:18:09.999Z</time></trkpt><trkpt lat="44.27185299497596" lon="10.669668227733302"><ele>1163.0</ele><time>2026-03-22T10:18:11.999Z</time></trkpt><trkpt lat="44.271842346788745" lon="10.66950235270386"><ele>1163.0</ele><time>2026-03-22T10:18:13.999Z</time></trkpt><trkpt lat="44.27182840260187" lon="10.669413557713135"><ele>1163.0</ele><time>2026-03-22T10:18:14.999Z</time></trkpt><trkpt lat="44.27181328986463" lon="10.669320024320506"><ele>1163.0</ele><time>2026-03-22T10:18:15.999Z</time></trkpt><trkpt lat="44.27179915567916" lon="10.66921849206421"><ele>1163.0</ele><time>2026-03-22T10:18:16.999Z</time></trkpt><trkpt lat="44.27178685486472" lon="10.669116917777123"><ele>1163.0</ele><time>2026-03-22T10:18:17.999Z</time></trkpt><trkpt lat="44.27177571692092" lon="10.669019501123444"><ele>1164.0</ele><time>2026-03-22T10:18:18.999Z</time></trkpt><trkpt lat="44.27173505226033" lon="10.6688773317867"><ele>1165.0</ele><time>2026-03-22T10:18:20.999Z</time></trkpt><trkpt lat="44.271727750042146" lon="10.668764061776212"><ele>1166.0</ele><time>2026-03-22T10:18:22.999Z</time></trkpt><trkpt lat="44.27168679697876" lon="10.668677084957094"><ele>1167.0</ele><time>2026-03-22T10:18:25.999Z</time></trkpt><trkpt lat="44.27165696127859" lon="10.668594351924206"><ele>1168.0</ele><time>2026-03-22T10:18:29.999Z</time></trkpt><trkpt lat="44.27163010683129" lon="10.668505223349413"><ele>1169.0</ele><time>2026-03-22T10:18:32.999Z</time></trkpt><trkpt lat="44.271584012383514" lon="10.668430069577484"><ele>1169.0</ele><time>2026-03-22T10:18:36.999Z</time></trkpt><trkpt lat="44.27168594981961" lon="10.668382645555495"><ele>1169.0</ele><time>2026-03-22T10:18:39.999Z</time></trkpt><trkpt lat="44.271744945646134" lon="10.66844429227366"><ele>1169.0</ele><time>2026-03-22T10:18:41.999Z</time></trkpt><trkpt lat="44.271837837614314" lon="10.668548045915246"><ele>1169.0</ele><time>2026-03-22T10:18:43.999Z</time></trkpt><trkpt lat="44.271884643861554" lon="10.668615812891604"><ele>1169.0</ele><time>2026-03-22T10:18:44.999Z</time></trkpt><trkpt lat="44.27192741556625" lon="10.668691948993091"><ele>1169.0</ele><time>2026-03-22T10:18:45.999Z</time></trkpt><trkpt lat="44.27196846739911" lon="10.668780789850862"><ele>1169.0</ele><time>2026-03-22T10:18:46.999Z</time></trkpt><trkpt lat="44.27201065667998" lon="10.668879030629745"><ele>1169.0</ele><time>2026-03-22T10:18:47.999Z</time></trkpt><trkpt lat="44.27203870777808" lon="10.668958263989877"><ele>1169.0</ele><time>2026-03-22T10:18:48.999Z</time></trkpt><trkpt lat="44.27209138816532" lon="10.669086918780739"><ele>1169.0</ele><time>2026-03-22T10:18:50.999Z</time></trkpt><trkpt lat="44.27213004374077" lon="10.669163416083506"><ele>1169.0</ele><time>2026-03-22T10:18:52.999Z</time></trkpt><trkpt lat="44.27221513910274" lon="10.669008587159142"><ele>1169.0</ele><time>2026-03-22T10:18:58.999Z</time></trkpt><trkpt lat="44.272199355647714" lon="10.668912425872957"><ele>1169.0</ele><time>2026-03-22T10:19:59Z</time></trkpt><trkpt lat="44.27217006223978" lon="10.668809547814817"><ele>1169.0</ele><time>2026-03-22T10:20:01Z</time></trkpt><trkpt lat="44.2721180005262" lon="10.668670390634844"><ele>1169.0</ele><time>2026-03-22T10:20:02.999Z</time></trkpt><trkpt lat="44.27208831352643" lon="10.668588815361574"><ele>1169.0</ele><time>2026-03-22T10:20:03.999Z</time></trkpt><trkpt lat="44.272059822960976" lon="10.668502421634061"><ele>1169.0</ele><time>2026-03-22T10:20:04.999Z</time></trkpt><trkpt lat="44.2720318389671" lon="10.668408296219987"><ele>1169.857142857143</ele><time>2026-03-22T10:20:05.999Z</time></trkpt><trkpt lat="44.27200374422016" lon="10.668312295854864"><ele>1170.7142857142858</ele><time>2026-03-22T10:20:06.999Z</time></trkpt><trkpt lat="44.27197045722136" lon="10.668222707655445"><ele>1171.5714285714284</ele><time>2026-03-22T10:20:07.999Z</time></trkpt><trkpt lat="44.271918837777505" lon="10.66815072309376"><ele>1172.4285714285716</ele><time>2026-03-22T10:20:08.999Z</time></trkpt><trkpt lat="44.27188055309374" lon="10.668072145632415"><ele>1173.2857142857142</ele><time>2026-03-22T10:20:09.999Z</time></trkpt><trkpt lat="44.271849928201604" lon="10.66799264349183"><ele>1174.142857142857</ele><time>2026-03-22T10:20:10.999Z</time></trkpt><trkpt lat="44.27180601954596" lon="10.667921641608803"><ele>1175.0</ele><time>2026-03-22T10:20:11.999Z</time></trkpt><trkpt lat="44.271756525103015" lon="10.667847687645155"><ele>1174.8</ele><time>2026-03-22T10:20:12.999Z</time></trkpt><trkpt lat="44.27167394441904" lon="10.667726256500812"><ele>1174.6</ele><time>2026-03-22T10:20:14.999Z</time></trkpt><trkpt lat="44.27161105789933" lon="10.667624240451493"><ele>1174.4</ele><time>2026-03-22T10:20:16.999Z</time></trkpt><trkpt lat="44.271548712738394" lon="10.667523157945503"><ele>1174.2</ele><time>2026-03-22T10:20:19.999Z</time></trkpt><trkpt lat="44.27147011194942" lon="10.667437362430107"><ele>1174.0</ele><time>2026-03-22T10:20:21.999Z</time></trkpt><trkpt lat="44.271377803447606" lon="10.6673530320896"><ele>1174.0</ele><time>2026-03-22T10:20:23.999Z</time></trkpt><trkpt lat="44.2713081763559" lon="10.667247564011282"><ele>1174.0</ele><time>2026-03-22T10:20:25.999Z</time></trkpt><trkpt lat="44.271231925396975" lon="10.667136787749579"><ele>1174.0</ele><time>2026-03-22T10:20:27.999Z</time></trkpt><trkpt lat="44.27121160197993" lon="10.666998781264473"><ele>1174.0</ele><time>2026-03-22T10:20:29.999Z</time></trkpt><trkpt lat="44.27128382328645" lon="10.666934549514483"><ele>1174.0</ele><time>2026-03-22T10:20:30.999Z</time></trkpt><trkpt lat="44.27133785308252" lon="10.666823602101458"><ele>1176.1666666666665</ele><time>2026-03-22T10:20:32.999Z</time></trkpt><trkpt lat="44.27136145915714" lon="10.666705816167154"><ele>1178.3333333333333</ele><time>2026-03-22T10:20:34.999Z</time></trkpt><trkpt lat="44.27135867798669" lon="10.666612384621072"><ele>1180.5</ele><time>2026-03-22T10:20:36.999Z</time></trkpt><trkpt lat="44.27133934607619" lon="10.666520136185918"><ele>1182.6666666666667</ele><time>2026-03-22T10:20:38.999Z</time></trkpt><trkpt lat="44.27131138346507" lon="10.666402214745139"><ele>1184.8333333333335</ele><time>2026-03-22T10:20:40.999Z</time></trkpt><trkpt lat="44.27126530630399" lon="10.666285035498989"><ele>1187.0</ele><time>2026-03-22T10:20:42.999Z</time></trkpt><trkpt lat="44.271213107223055" lon="10.666166349537432"><ele>1190.0</ele><time>2026-03-22T10:20:44.999Z</time></trkpt><trkpt lat="44.27118884730213" lon="10.666034793448434"><ele>1193.0</ele><time>2026-03-22T10:20:46.999Z</time></trkpt><trkpt lat="44.271154169306236" lon="10.665915091564601"><ele>1196.0</ele><time>2026-03-22T10:20:48.999Z</time></trkpt><trkpt lat="44.271144557628716" lon="10.665777294711518"><ele>1199.0</ele><time>2026-03-22T10:20:50.999Z</time></trkpt><trkpt lat="44.271117208367926" lon="10.6656312087536"><ele>1202.0</ele><time>2026-03-22T10:20:52.999Z</time></trkpt><trkpt lat="44.271108273203424" lon="10.665460465094405"><ele>1202.0</ele><time>2026-03-22T10:20:54.999Z</time></trkpt><trkpt lat="44.27106685539725" lon="10.665319596734555"><ele>1202.0</ele><time>2026-03-22T10:20:56.999Z</time></trkpt><trkpt lat="44.27104104358653" lon="10.665191261909921"><ele>1202.0</ele><time>2026-03-22T10:20:58.999Z</time></trkpt><trkpt lat="44.271019326193915" lon="10.665086437517015"><ele>1202.0</ele><time>2026-03-22T10:21:00.999Z</time></trkpt><trkpt lat="44.27100083704381" lon="10.66495592869109"><ele>1202.0</ele><time>2026-03-22T10:21:02.999Z</time></trkpt><trkpt lat="44.27096320822721" lon="10.664845392428989"><ele>1204.3333333333335</ele><time>2026-03-22T10:21:04.999Z</time></trkpt><trkpt lat="44.270930871152494" lon="10.664735412111417"><ele>1206.6666666666667</ele><time>2026-03-22T10:21:06.999Z</time></trkpt><trkpt lat="44.270887084932895" lon="10.66460550560232"><ele>1209.0</ele><time>2026-03-22T10:21:08.998Z</time></trkpt><trkpt lat="44.27085475041905" lon="10.664510794087466"><ele>1211.3333333333333</ele><time>2026-03-22T10:21:10.998Z</time></trkpt><trkpt lat="44.270813042013" lon="10.664409640719384"><ele>1213.6666666666665</ele><time>2026-03-22T10:21:12.998Z</time></trkpt><trkpt lat="44.27076448830623" lon="10.664323690407826"><ele>1216.0</ele><time>2026-03-22T10:21:14.998Z</time></trkpt><trkpt lat="44.27068673098838" lon="10.664209008226562"><ele>1215.3333333333333</ele><time>2026-03-22T10:21:17.998Z</time></trkpt><trkpt lat="44.27060565182908" lon="10.664253667338501"><ele>1214.6666666666665</ele><time>2026-03-22T10:21:20Z</time></trkpt><trkpt lat="44.27057320463804" lon="10.664329760277361"><ele>1214.0</ele><time>2026-03-22T10:21:21Z</time></trkpt><trkpt lat="44.27052475282282" lon="10.664400671606655"><ele>1213.3333333333333</ele><time>2026-03-22T10:21:23Z</time></trkpt><trkpt lat="44.270462039158645" lon="10.664451607164716"><ele>1212.6666666666667</ele><time>2026-03-22T10:21:27Z</time></trkpt><trkpt lat="44.27042272345703" lon="10.664295301915896"><ele>1212.0</ele><time>2026-03-22T10:21:29Z</time></trkpt><trkpt lat="44.27043514414437" lon="10.664152600932029"><ele>1213.8</ele><time>2026-03-22T10:21:31Z</time></trkpt><trkpt lat="44.270413217345954" lon="10.66403215876227"><ele>1215.6</ele><time>2026-03-22T10:21:35Z</time></trkpt><trkpt lat="44.27038711569446" lon="10.663935805837756"><ele>1217.3999999999999</ele><time>2026-03-22T10:21:37Z</time></trkpt><trkpt lat="44.27035437539661" lon="10.663818121287342"><ele>1219.2</ele><time>2026-03-22T10:21:39Z</time></trkpt><trkpt lat="44.270317457795535" lon="10.663676469455034"><ele>1221.0</ele><time>2026-03-22T10:21:41Z</time></trkpt><trkpt lat="44.270283351820865" lon="10.663549893121203"><ele>1223.8</ele><time>2026-03-22T10:21:43Z</time></trkpt><trkpt lat="44.27023651107255" lon="10.663431839522062"><ele>1226.6</ele><time>2026-03-22T10:21:45Z</time></trkpt><trkpt lat="44.27017411531292" lon="10.66333835626892"><ele>1229.4</ele><time>2026-03-22T10:21:47Z</time></trkpt><trkpt lat="44.27014152000138" lon="10.663226643210116"><ele>1232.2</ele><time>2026-03-22T10:21:50Z</time></trkpt><trkpt lat="44.270113135733475" lon="10.663130530062755"><ele>1235.0</ele><time>2026-03-22T10:21:53Z</time></trkpt><trkpt lat="44.270073185755216" lon="10.662995253794305"><ele>1235.0</ele><time>2026-03-22T10:21:55Z</time></trkpt><trkpt lat="44.27007283316366" lon="10.662864325453183"><ele>1235.0</ele><time>2026-03-22T10:21:57Z</time></trkpt><trkpt lat="44.270048644285595" lon="10.662751028661141"><ele>1235.0</ele><time>2026-03-22T10:21:58.999Z</time></trkpt><trkpt lat="44.27000120459076" lon="10.662681424010321"><ele>1235.0</ele><time>2026-03-22T10:22:20.999Z</time></trkpt><trkpt lat="44.269928371000056" lon="10.662604326956272"><ele>1235.0</ele><time>2026-03-22T10:22:24.999Z</time></trkpt><trkpt lat="44.26985522798059" lon="10.662513720960597"><ele>1235.0</ele><time>2026-03-22T10:22:27.999Z</time></trkpt><trkpt lat="44.26981209176991" lon="10.662431253253525"><ele>1237.7142857142856</ele><time>2026-03-22T10:22:30.999Z</time></trkpt><trkpt lat="44.26975106590803" lon="10.662377958308207"><ele>1240.4285714285713</ele><time>2026-03-22T10:22:33.999Z</time></trkpt><trkpt lat="44.26969447050921" lon="10.662419496369541"><ele>1243.142857142857</ele><time>2026-03-22T10:22:35.999Z</time></trkpt><trkpt lat="44.26965507068619" lon="10.66250049061823"><ele>1245.8571428571427</ele><time>2026-03-22T10:22:37.999Z</time></trkpt><trkpt lat="44.26960222904524" lon="10.66258944178448"><ele>1248.5714285714284</ele><time>2026-03-22T10:22:42.999Z</time></trkpt><trkpt lat="44.26954250201733" lon="10.662661422170267"><ele>1251.2857142857142</ele><time>2026-03-22T10:22:45.999Z</time></trkpt><trkpt lat="44.26949873852399" lon="10.662727428059986"><ele>1254.0</ele><time>2026-03-22T10:22:48.999Z</time></trkpt><trkpt lat="44.2694492799419" lon="10.662806303559895"><ele>1254.0</ele><time>2026-03-22T10:22:51.999Z</time></trkpt><trkpt lat="44.269408819580164" lon="10.662878816458651"><ele>1254.0</ele><time>2026-03-22T10:22:55.999Z</time></trkpt><trkpt lat="44.26935204482501" lon="10.662950318447326"><ele>1254.0</ele><time>2026-03-22T10:23:00.999Z</time></trkpt><trkpt lat="44.269292685074625" lon="10.663048792117113"><ele>1254.0</ele><time>2026-03-22T10:23:03.999Z</time></trkpt><trkpt lat="44.26925653896099" lon="10.663128635977708"><ele>1254.0</ele><time>2026-03-22T10:23:05.999Z</time></trkpt><trkpt lat="44.26920883675468" lon="10.663187940854879"><ele>1254.0</ele><time>2026-03-22T10:23:07.999Z</time></trkpt><trkpt lat="44.26913710948273" lon="10.66325733129984"><ele>1254.0</ele><time>2026-03-22T10:23:10.998Z</time></trkpt><trkpt lat="44.269054869150814" lon="10.663299075068162"><ele>1254.0</ele><time>2026-03-22T10:23:14.998Z</time></trkpt><trkpt lat="44.268984316442804" lon="10.663310680782565"><ele>1254.0</ele><time>2026-03-22T10:23:17.998Z</time></trkpt><trkpt lat="44.26892869585762" lon="10.663251010190077"><ele>1254.0</ele><time>2026-03-22T10:23:21.998Z</time></trkpt><trkpt lat="44.26889520452305" lon="10.663168695371686"><ele>1254.0</ele><time>2026-03-22T10:23:26Z</time></trkpt><trkpt lat="44.26888394661553" lon="10.663073244281389"><ele>1254.0</ele><time>2026-03-22T10:23:30Z</time></trkpt><trkpt lat="44.26888190273989" lon="10.662975620747737"><ele>1254.0</ele><time>2026-03-22T10:23:33Z</time></trkpt><trkpt lat="44.26883066662458" lon="10.662913966297365"><ele>1253.8333333333333</ele><time>2026-03-22T10:23:36Z</time></trkpt><trkpt lat="44.2688076874341" lon="10.66279605914606"><ele>1253.6666666666667</ele><time>2026-03-22T10:23:40Z</time></trkpt><trkpt lat="44.26880060831172" lon="10.662706931552789"><ele>1253.5</ele><time>2026-03-22T10:23:43Z</time></trkpt><trkpt lat="44.26885638147084" lon="10.662643530680631"><ele>1253.3333333333335</ele><time>2026-03-22T10:23:47Z</time></trkpt><trkpt lat="44.268865155063686" lon="10.662534270026192"><ele>1253.1666666666667</ele><time>2026-03-22T10:23:51Z</time></trkpt><trkpt lat="44.268887252858924" lon="10.662438783169529"><ele>1253.0</ele><time>2026-03-22T10:23:54Z</time></trkpt><trkpt lat="44.26887834513962" lon="10.66231696064973"><ele>1256.3333333333335</ele><time>2026-03-22T10:23:57Z</time></trkpt><trkpt lat="44.268825503135965" lon="10.662241891399006"><ele>1259.6666666666667</ele><time>2026-03-22T10:24:00Z</time></trkpt><trkpt lat="44.26876784097278" lon="10.662148639560757"><ele>1263.0</ele><time>2026-03-22T10:24:03Z</time></trkpt><trkpt lat="44.26872273671863" lon="10.662040987600294"><ele>1266.3333333333333</ele><time>2026-03-22T10:24:06Z</time></trkpt><trkpt lat="44.26870839781226" lon="10.661945560426455"><ele>1269.6666666666665</ele><time>2026-03-22T10:24:09Z</time></trkpt><trkpt lat="44.268694887307376" lon="10.661845776476653"><ele>1273.0</ele><time>2026-03-22T10:24:13Z</time></trkpt><trkpt lat="44.26869882815944" lon="10.661755701755448"><ele>1275.5714285714284</ele><time>2026-03-22T10:24:19.999Z</time></trkpt><trkpt lat="44.26869718923991" lon="10.66165054406714"><ele>1278.142857142857</ele><time>2026-03-22T10:24:24.999Z</time></trkpt><trkpt lat="44.26869164919371" lon="10.661553151976294"><ele>1280.7142857142858</ele><time>2026-03-22T10:24:29.999Z</time></trkpt><trkpt lat="44.26867581046459" lon="10.661460484510588"><ele>1283.2857142857142</ele><time>2026-03-22T10:24:31.999Z</time></trkpt><trkpt lat="44.26866646892859" lon="10.661373429988002"><ele>1285.857142857143</ele><time>2026-03-22T10:24:34.999Z</time></trkpt><trkpt lat="44.268657542923535" lon="10.661280681834342"><ele>1288.4285714285713</ele><time>2026-03-22T10:24:37.999Z</time></trkpt><trkpt lat="44.268644677921245" lon="10.661179585167053"><ele>1291.0</ele><time>2026-03-22T10:24:40.999Z</time></trkpt><trkpt lat="44.268664849730925" lon="10.660995094314892"><ele>1290.9999999999998</ele><time>2026-03-22T10:26:46.999Z</time></trkpt><trkpt lat="44.2686068072223" lon="10.66104823737042"><ele>1291.0</ele><time>2026-03-22T10:28:06Z</time></trkpt><trkpt lat="44.26861901570092" lon="10.661150878124108"><ele>1291.0</ele><time>2026-03-22T10:28:11Z</time></trkpt><trkpt lat="44.26863357771521" lon="10.661261120658617"><ele>1291.0</ele><time>2026-03-22T10:28:15Z</time></trkpt><trkpt lat="44.268653407426086" lon="10.661357825597463"><ele>1291.0</ele><time>2026-03-22T10:28:18Z</time></trkpt><trkpt lat="44.26866902078436" lon="10.661464443697373"><ele>1290.9999999999998</ele><time>2026-03-22T10:28:21Z</time></trkpt><trkpt lat="44.26868986655726" lon="10.661563009403283"><ele>1291.0</ele><time>2026-03-22T10:28:24Z</time></trkpt><trkpt lat="44.268688183935616" lon="10.66165953790461"><ele>1291.0</ele><time>2026-03-22T10:28:28Z</time></trkpt><trkpt lat="44.26869590122984" lon="10.661746838029899"><ele>1291.0</ele><time>2026-03-22T10:28:32Z</time></trkpt><trkpt lat="44.26870121273491" lon="10.661854261875824"><ele>1291.0</ele><time>2026-03-22T10:28:36Z</time></trkpt><trkpt lat="44.26873996179951" lon="10.661937536278629"><ele>1291.0</ele><time>2026-03-22T10:28:44Z</time></trkpt><trkpt lat="44.268834777761924" lon="10.66217215808495"><ele>1291.0</ele><time>2026-03-22T10:36:32Z</time></trkpt><trkpt lat="44.26890252173639" lon="10.662318839285396"><ele>1288.4285714285713</ele><time>2026-03-22T10:37:18.999Z</time></trkpt><trkpt lat="44.26891009873713" lon="10.662412978533528"><ele>1285.857142857143</ele><time>2026-03-22T10:37:27.999Z</time></trkpt><trkpt lat="44.268878428403966" lon="10.662497152497805"><ele>1283.2857142857142</ele><time>2026-03-22T10:37:38.999Z</time></trkpt><trkpt lat="44.26885769393278" lon="10.662589592031159"><ele>1280.7142857142858</ele><time>2026-03-22T10:37:49.999Z</time></trkpt><trkpt lat="44.26882637806465" lon="10.66267419162705"><ele>1278.142857142857</ele><time>2026-03-22T10:37:59.998Z</time></trkpt><trkpt lat="44.26879970412398" lon="10.662766250786367"><ele>1275.5714285714284</ele><time>2026-03-22T10:38:05.998Z</time></trkpt><trkpt lat="44.268808245385046" lon="10.662857275236085"><ele>1273.0</ele><time>2026-03-22T10:38:12Z</time></trkpt><trkpt lat="44.26885297482478" lon="10.662936817211943"><ele>1270.2857142857142</ele><time>2026-03-22T10:38:23Z</time></trkpt><trkpt lat="44.26887423299726" lon="10.663032199873875"><ele>1267.5714285714287</ele><time>2026-03-22T10:38:34Z</time></trkpt><trkpt lat="44.26886589106984" lon="10.66313480725136"><ele>1264.857142857143</ele><time>2026-03-22T10:38:41Z</time></trkpt><trkpt lat="44.2688855346478" lon="10.663224182799691"><ele>1262.142857142857</ele><time>2026-03-22T10:38:45Z</time></trkpt><trkpt lat="44.268915005459995" lon="10.663302909661862"><ele>1259.4285714285713</ele><time>2026-03-22T10:38:52.999Z</time></trkpt><trkpt lat="44.26896408083985" lon="10.663372049098696"><ele>1256.7142857142858</ele><time>2026-03-22T10:39:11.999Z</time></trkpt><trkpt lat="44.26902710826971" lon="10.663368722036424"><ele>1254.0</ele><time>2026-03-22T10:39:26.999Z</time></trkpt><trkpt lat="44.269095329902825" lon="10.6633243233653"><ele>1254.0</ele><time>2026-03-22T10:39:31.999Z</time></trkpt><trkpt lat="44.26915044276126" lon="10.663277936473824"><ele>1254.0</ele><time>2026-03-22T10:39:35.999Z</time></trkpt><trkpt lat="44.26921670425101" lon="10.663230048002454"><ele>1254.0</ele><time>2026-03-22T10:39:57.998Z</time></trkpt><trkpt lat="44.2692633608952" lon="10.66315568898105"><ele>1254.0</ele><time>2026-03-22T10:40:03.998Z</time></trkpt><trkpt lat="44.26928626752487" lon="10.66305694011117"><ele>1254.0</ele><time>2026-03-22T10:40:09.998Z</time></trkpt><trkpt lat="44.269345070264066" lon="10.663011601843596"><ele>1254.0</ele><time>2026-03-22T10:40:17Z</time></trkpt><trkpt lat="44.269374886865904" lon="10.66293363774471"><ele>1254.0</ele><time>2026-03-22T10:40:26Z</time></trkpt><trkpt lat="44.26941034802729" lon="10.662854994977506"><ele>1254.0</ele><time>2026-03-22T10:40:39Z</time></trkpt><trkpt lat="44.26946605948192" lon="10.662813578008592"><ele>1254.0</ele><time>2026-03-22T10:40:53Z</time></trkpt><trkpt lat="44.269515159767806" lon="10.66274529125009"><ele>1254.0</ele><time>2026-03-22T10:41:05.999Z</time></trkpt><trkpt lat="44.26955687176376" lon="10.662668844302965"><ele>1254.0</ele><time>2026-03-22T10:41:18.999Z</time></trkpt><trkpt lat="44.26961119486829" lon="10.662612755987993"><ele>1254.0</ele><time>2026-03-22T10:41:24.999Z</time></trkpt><trkpt lat="44.26965490636806" lon="10.66254589763175"><ele>1254.0</ele><time>2026-03-22T10:41:27.999Z</time></trkpt><trkpt lat="44.269696821008814" lon="10.662477441109097"><ele>1254.0</ele><time>2026-03-22T10:41:30.999Z</time></trkpt><trkpt lat="44.26976925832499" lon="10.662472841525977"><ele>1253.4285714285716</ele><time>2026-03-22T10:41:36.999Z</time></trkpt><trkpt lat="44.269819774072865" lon="10.662534971381831"><ele>1252.857142857143</ele><time>2026-03-22T10:41:41.999Z</time></trkpt><trkpt lat="44.26987060867807" lon="10.662605218964696"><ele>1252.2857142857142</ele><time>2026-03-22T10:41:47.999Z</time></trkpt><trkpt lat="44.26992465242541" lon="10.662666955006776"><ele>1251.7142857142858</ele><time>2026-03-22T10:41:51.999Z</time></trkpt><trkpt lat="44.26998222332648" lon="10.662708956819131"><ele>1251.142857142857</ele><time>2026-03-22T10:41:54.999Z</time></trkpt><trkpt lat="44.27002551980667" lon="10.66278284365179"><ele>1250.5714285714287</ele><time>2026-03-22T10:41:56.999Z</time></trkpt><trkpt lat="44.27004063570658" lon="10.66289945026604"><ele>1250.0</ele><time>2026-03-22T10:41:58.999Z</time></trkpt><trkpt lat="44.27007230147341" lon="10.663007195352684"><ele>1247.5</ele><time>2026-03-22T10:42:00.999Z</time></trkpt><trkpt lat="44.27010955788297" lon="10.663101704012673"><ele>1245.0</ele><time>2026-03-22T10:42:02.999Z</time></trkpt><trkpt lat="44.27013140235579" lon="10.66319863636439"><ele>1242.5</ele><time>2026-03-22T10:42:05.998Z</time></trkpt><trkpt lat="44.27016713669934" lon="10.663288087395308"><ele>1240.0</ele><time>2026-03-22T10:42:07.998Z</time></trkpt><trkpt lat="44.27019229288291" lon="10.663386190306962"><ele>1237.5</ele><time>2026-03-22T10:42:10.998Z</time></trkpt><trkpt lat="44.270276401964026" lon="10.663495342492237"><ele>1235.0</ele><time>2026-03-22T10:42:12.998Z</time></trkpt><trkpt lat="44.27033239573651" lon="10.66354761869997"><ele>1232.6666666666667</ele><time>2026-03-22T10:42:14.998Z</time></trkpt><trkpt lat="44.270370076512286" lon="10.663679702681355"><ele>1230.3333333333335</ele><time>2026-03-22T10:42:19Z</time></trkpt><trkpt lat="44.270395567664586" lon="10.663803843395245"><ele>1228.0</ele><time>2026-03-22T10:42:22Z</time></trkpt><trkpt lat="44.270415217973905" lon="10.663906404850342"><ele>1225.6666666666667</ele><time>2026-03-22T10:42:24Z</time></trkpt><trkpt lat="44.27044181450958" lon="10.664028539884061"><ele>1223.3333333333333</ele><time>2026-03-22T10:42:27Z</time></trkpt><trkpt lat="44.270490586544085" lon="10.664115197524458"><ele>1221.0</ele><time>2026-03-22T10:42:30Z</time></trkpt><trkpt lat="44.27050839335219" lon="10.664202284096355"><ele>1221.0</ele><time>2026-03-22T10:42:34Z</time></trkpt><trkpt lat="44.27047850217347" lon="10.664336302820296"><ele>1221.0</ele><time>2026-03-22T10:42:36Z</time></trkpt><trkpt lat="44.27045844786762" lon="10.66443741675763"><ele>1221.0</ele><time>2026-03-22T10:42:38Z</time></trkpt><trkpt lat="44.27049784127773" lon="10.664515295156322"><ele>1221.0</ele><time>2026-03-22T10:42:41Z</time></trkpt><trkpt lat="44.27058487295091" lon="10.66449214073193"><ele>1221.0</ele><time>2026-03-22T10:42:44Z</time></trkpt><trkpt lat="44.27061994025549" lon="10.66439437432449"><ele>1221.0</ele><time>2026-03-22T10:42:47Z</time></trkpt><trkpt lat="44.27067074292916" lon="10.664311355970577"><ele>1220.0</ele><time>2026-03-22T10:42:50Z</time></trkpt><trkpt lat="44.27076028737506" lon="10.664310939815039"><ele>1219.0</ele><time>2026-03-22T10:42:53Z</time></trkpt><trkpt lat="44.27080904753264" lon="10.664380196909693"><ele>1218.0</ele><time>2026-03-22T10:42:55Z</time></trkpt><trkpt lat="44.2708626009574" lon="10.6644679453563"><ele>1217.0</ele><time>2026-03-22T10:42:57Z</time></trkpt><trkpt lat="44.27090157934409" lon="10.664605755035138"><ele>1216.0</ele><time>2026-03-22T10:43:00Z</time></trkpt><trkpt lat="44.27091920297173" lon="10.664759003328196"><ele>1216.0</ele><time>2026-03-22T10:43:02Z</time></trkpt><trkpt lat="44.27094251218154" lon="10.664877249268116"><ele>1216.0</ele><time>2026-03-22T10:43:04Z</time></trkpt><trkpt lat="44.270985307142105" lon="10.665021822008653"><ele>1216.0</ele><time>2026-03-22T10:43:05.999Z</time></trkpt><trkpt lat="44.271031909420465" lon="10.665157526554305"><ele>1216.0</ele><time>2026-03-22T10:43:07.999Z</time></trkpt><trkpt lat="44.271058769159865" lon="10.66528121624428"><ele>1216.0</ele><time>2026-03-22T10:43:09.999Z</time></trkpt><trkpt lat="44.271077315556326" lon="10.665396478453099"><ele>1214.0</ele><time>2026-03-22T10:43:11.999Z</time></trkpt><trkpt lat="44.27108050221116" lon="10.665505445404065"><ele>1212.0</ele><time>2026-03-22T10:43:13.999Z</time></trkpt><trkpt lat="44.27109438957317" lon="10.66562168491014"><ele>1210.0</ele><time>2026-03-22T10:43:15.999Z</time></trkpt><trkpt lat="44.271117729639336" lon="10.665726018544158"><ele>1208.0</ele><time>2026-03-22T10:43:17.999Z</time></trkpt><trkpt lat="44.271136083906164" lon="10.66581350116395"><ele>1206.0</ele><time>2026-03-22T10:43:19.999Z</time></trkpt><trkpt lat="44.27115090493" lon="10.665911188488138"><ele>1204.0</ele><time>2026-03-22T10:43:21.999Z</time></trkpt><trkpt lat="44.27116665611853" lon="10.665998512150306"><ele>1202.0</ele><time>2026-03-22T10:43:23.999Z</time></trkpt><trkpt lat="44.27118854914996" lon="10.666091815275658"><ele>1199.5</ele><time>2026-03-22T10:43:25.999Z</time></trkpt><trkpt lat="44.271232032988685" lon="10.666199007755836"><ele>1197.0</ele><time>2026-03-22T10:43:27.999Z</time></trkpt><trkpt lat="44.271280195081516" lon="10.666272019208783"><ele>1194.5</ele><time>2026-03-22T10:43:29.999Z</time></trkpt><trkpt lat="44.2713165909833" lon="10.666366880944425"><ele>1192.0</ele><time>2026-03-22T10:43:31.999Z</time></trkpt><trkpt lat="44.27134661316154" lon="10.666458821469352"><ele>1189.5</ele><time>2026-03-22T10:43:33.999Z</time></trkpt><trkpt lat="44.27138909853427" lon="10.666583528569282"><ele>1187.0</ele><time>2026-03-22T10:43:36.999Z</time></trkpt><trkpt lat="44.2714019288162" lon="10.666675502484452"><ele>1187.0</ele><time>2026-03-22T10:43:38.999Z</time></trkpt><trkpt lat="44.271376772272305" lon="10.666777969426363"><ele>1187.0</ele><time>2026-03-22T10:43:41.999Z</time></trkpt><trkpt lat="44.271332629344386" lon="10.666853578996642"><ele>1187.0</ele><time>2026-03-22T10:43:43.999Z</time></trkpt><trkpt lat="44.27128599819329" lon="10.666957484605254"><ele>1187.0</ele><time>2026-03-22T10:43:45.999Z</time></trkpt><trkpt lat="44.271269335536026" lon="10.667073860722244"><ele>1187.0</ele><time>2026-03-22T10:43:47.999Z</time></trkpt><trkpt lat="44.27129944491522" lon="10.667195148792086"><ele>1187.0</ele><time>2026-03-22T10:43:49.999Z</time></trkpt><trkpt lat="44.27135116375417" lon="10.667304960906955"><ele>1186.4</ele><time>2026-03-22T10:43:51.999Z</time></trkpt><trkpt lat="44.27143087921248" lon="10.66739384536816"><ele>1185.8000000000002</ele><time>2026-03-22T10:43:53.999Z</time></trkpt><trkpt lat="44.2715096542428" lon="10.667466688769464"><ele>1185.2</ele><time>2026-03-22T10:43:55.999Z</time></trkpt><trkpt lat="44.27157759538617" lon="10.667544317349051"><ele>1184.6000000000001</ele><time>2026-03-22T10:43:57.999Z</time></trkpt><trkpt lat="44.271632649244026" lon="10.667642098975266"><ele>1184.0</ele><time>2026-03-22T10:43:59.999Z</time></trkpt><trkpt lat="44.271697999304315" lon="10.667743322197317"><ele>1182.2</ele><time>2026-03-22T10:44:01.999Z</time></trkpt><trkpt lat="44.27177446264483" lon="10.667848073323427"><ele>1180.4</ele><time>2026-03-22T10:44:03.999Z</time></trkpt><trkpt lat="44.27176285126398" lon="10.667969973547914"><ele>1178.6</ele><time>2026-03-22T10:44:04.999Z</time></trkpt><trkpt lat="44.271836137860255" lon="10.668105290959732"><ele>1176.8</ele><time>2026-03-22T10:44:06.999Z</time></trkpt><trkpt lat="44.27187354359023" lon="10.668181327518836"><ele>1175.0</ele><time>2026-03-22T10:44:07.999Z</time></trkpt><trkpt lat="44.271912508216715" lon="10.668264940166829"><ele>1175.0</ele><time>2026-03-22T10:44:08.999Z</time></trkpt><trkpt lat="44.2719486628981" lon="10.66834768043801"><ele>1175.0</ele><time>2026-03-22T10:44:09.999Z</time></trkpt><trkpt lat="44.271980648804195" lon="10.668433257243922"><ele>1175.0</ele><time>2026-03-22T10:44:10.999Z</time></trkpt><trkpt lat="44.272012254913875" lon="10.668529016699432"><ele>1175.0</ele><time>2026-03-22T10:44:11.998Z</time></trkpt><trkpt lat="44.272044020096374" lon="10.668628922430983"><ele>1175.0</ele><time>2026-03-22T10:44:12.998Z</time></trkpt><trkpt lat="44.27207171347618" lon="10.668720107952312"><ele>1175.0</ele><time>2026-03-22T10:44:13.998Z</time></trkpt><trkpt lat="44.272099249818254" lon="10.668810022795677"><ele>1175.0</ele><time>2026-03-22T10:44:14.998Z</time></trkpt><trkpt lat="44.27212732406255" lon="10.6688914954043"><ele>1174.0</ele><time>2026-03-22T10:44:15.998Z</time></trkpt><trkpt lat="44.272167836264366" lon="10.669018349820321"><ele>1173.0</ele><time>2026-03-22T10:44:17.998Z</time></trkpt><trkpt lat="44.2721743846052" lon="10.66910670964"><ele>1172.0</ele><time>2026-03-22T10:44:20.998Z</time></trkpt><trkpt lat="44.272164208890395" lon="10.669013160554162"><ele>1171.0</ele><time>2026-03-22T10:44:51Z</time></trkpt><trkpt lat="44.27211927701664" lon="10.66887463548323"><ele>1170.0</ele><time>2026-03-22T10:44:53Z</time></trkpt><trkpt lat="44.27208821308847" lon="10.668797996925402"><ele>1169.0</ele><time>2026-03-22T10:44:54Z</time></trkpt><trkpt lat="44.272042706479915" lon="10.668700786737755"><ele>1170.0</ele><time>2026-03-22T10:44:55Z</time></trkpt><trkpt lat="44.271956536117244" lon="10.6685799022709"><ele>1171.0</ele><time>2026-03-22T10:44:56Z</time></trkpt><trkpt lat="44.27189512395089" lon="10.668528864779548"><ele>1172.0</ele><time>2026-03-22T10:44:57Z</time></trkpt><trkpt lat="44.27184564238126" lon="10.668464761514802"><ele>1173.0</ele><time>2026-03-22T10:44:58Z</time></trkpt><trkpt lat="44.27178614318603" lon="10.66839882175707"><ele>1174.0</ele><time>2026-03-22T10:44:59Z</time></trkpt><trkpt lat="44.271730401572135" lon="10.668349538568632"><ele>1175.0</ele><time>2026-03-22T10:45:00Z</time></trkpt><trkpt lat="44.27162635388739" lon="10.668323556431947"><ele>1175.0</ele><time>2026-03-22T10:45:02Z</time></trkpt><trkpt lat="44.27148870663696" lon="10.668321127598286"><ele>1175.0</ele><time>2026-03-22T10:45:04Z</time></trkpt><trkpt lat="44.27140197996111" lon="10.668279836121673"><ele>1175.0</ele><time>2026-03-22T10:45:05Z</time></trkpt><trkpt lat="44.271304859416546" lon="10.668235109972379"><ele>1175.0</ele><time>2026-03-22T10:45:06Z</time></trkpt><trkpt lat="44.27118994671863" lon="10.668193654858294"><ele>1172.5</ele><time>2026-03-22T10:45:07Z</time></trkpt><trkpt lat="44.27107096878704" lon="10.668148906154261"><ele>1170.0</ele><time>2026-03-22T10:45:08Z</time></trkpt><trkpt lat="44.270950371535534" lon="10.668103926892098"><ele>1167.5</ele><time>2026-03-22T10:45:09Z</time></trkpt><trkpt lat="44.27084289490504" lon="10.668058577137716"><ele>1165.0</ele><time>2026-03-22T10:45:10Z</time></trkpt><trkpt lat="44.27072250556526" lon="10.667957905218255"><ele>1165.0</ele><time>2026-03-22T10:45:11Z</time></trkpt><trkpt lat="44.27063732429529" lon="10.6678738787085"><ele>1165.0</ele><time>2026-03-22T10:45:12Z</time></trkpt><trkpt lat="44.270560281770955" lon="10.667800445164572"><ele>1165.0</ele><time>2026-03-22T10:45:12.999Z</time></trkpt><trkpt lat="44.270478230399526" lon="10.667731709015731"><ele>1165.0</ele><time>2026-03-22T10:45:13.999Z</time></trkpt><trkpt lat="44.27038091364585" lon="10.667699691941694"><ele>1165.0</ele><time>2026-03-22T10:45:14.999Z</time></trkpt><trkpt lat="44.27026243446494" lon="10.66771550074826"><ele>1164.5</ele><time>2026-03-22T10:45:15.999Z</time></trkpt><trkpt lat="44.27012940112119" lon="10.667756090118804"><ele>1164.0</ele><time>2026-03-22T10:45:16.999Z</time></trkpt><trkpt lat="44.26998743369993" lon="10.667803094484334"><ele>1163.5</ele><time>2026-03-22T10:45:17.999Z</time></trkpt><trkpt lat="44.2698522099082" lon="10.667841461775492"><ele>1163.0</ele><time>2026-03-22T10:45:18.999Z</time></trkpt><trkpt lat="44.26971725362695" lon="10.667868596139447"><ele>1161.0</ele><time>2026-03-22T10:45:19.999Z</time></trkpt><trkpt lat="44.269589140721834" lon="10.667895642971748"><ele>1159.0</ele><time>2026-03-22T10:45:20.999Z</time></trkpt><trkpt lat="44.269466246166786" lon="10.667916549730446"><ele>1157.0</ele><time>2026-03-22T10:45:21.999Z</time></trkpt><trkpt lat="44.26934751908256" lon="10.667936820134525"><ele>1155.0</ele><time>2026-03-22T10:45:22.999Z</time></trkpt><trkpt lat="44.26923059019212" lon="10.667974164799714"><ele>1155.0</ele><time>2026-03-22T10:45:23.999Z</time></trkpt><trkpt lat="44.26911863382217" lon="10.668054542460442"><ele>1155.0</ele><time>2026-03-22T10:45:24.999Z</time></trkpt><trkpt lat="44.269008497538" lon="10.668155926600214"><ele>1155.0</ele><time>2026-03-22T10:45:25.999Z</time></trkpt><trkpt lat="44.26889522922596" lon="10.668246473662839"><ele>1155.0</ele><time>2026-03-22T10:45:26.999Z</time></trkpt><trkpt lat="44.26878207508665" lon="10.668317744422044"><ele>1156.0</ele><time>2026-03-22T10:45:27.999Z</time></trkpt><trkpt lat="44.268663300624105" lon="10.668347006558859"><ele>1157.0</ele><time>2026-03-22T10:45:28.999Z</time></trkpt><trkpt lat="44.26855467837813" lon="10.668411555526543"><ele>1158.0</ele><time>2026-03-22T10:45:29.999Z</time></trkpt><trkpt lat="44.26846149599326" lon="10.66848718169212"><ele>1159.0</ele><time>2026-03-22T10:45:30.999Z</time></trkpt><trkpt lat="44.26836716568495" lon="10.668549513336359"><ele>1159.0</ele><time>2026-03-22T10:45:31.999Z</time></trkpt><trkpt lat="44.26828472911144" lon="10.668600743530888"><ele>1159.0</ele><time>2026-03-22T10:45:32.999Z</time></trkpt><trkpt lat="44.26820488914685" lon="10.66861140998757"><ele>1159.0</ele><time>2026-03-22T10:45:33.999Z</time></trkpt><trkpt lat="44.26810149497547" lon="10.668575932077148"><ele>1159.0</ele><time>2026-03-22T10:45:34.999Z</time></trkpt><trkpt lat="44.26798445975568" lon="10.6684940949511"><ele>1159.0</ele><time>2026-03-22T10:45:35.999Z</time></trkpt><trkpt lat="44.267858462450775" lon="10.66838894861923"><ele>1153.6666666666665</ele><time>2026-03-22T10:45:36.999Z</time></trkpt><trkpt lat="44.267722906203545" lon="10.668263620989823"><ele>1148.3333333333333</ele><time>2026-03-22T10:45:37.999Z</time></trkpt><trkpt lat="44.26757346350985" lon="10.668159862713573"><ele>1143.0</ele><time>2026-03-22T10:45:38.999Z</time></trkpt><trkpt lat="44.267410341119906" lon="10.668065669319814"><ele>1140.0</ele><time>2026-03-22T10:45:39.999Z</time></trkpt><trkpt lat="44.26724209484124" lon="10.667985341507984"><ele>1137.0</ele><time>2026-03-22T10:45:40.999Z</time></trkpt><trkpt lat="44.267075845652634" lon="10.667925817084225"><ele>1134.0</ele><time>2026-03-22T10:45:41.999Z</time></trkpt><trkpt lat="44.26691204394797" lon="10.667876235285132"><ele>1134.0</ele><time>2026-03-22T10:45:42.999Z</time></trkpt><trkpt lat="44.266754807102124" lon="10.6678330301488"><ele>1134.0</ele><time>2026-03-22T10:45:43.999Z</time></trkpt><trkpt lat="44.26661442734768" lon="10.667794351213459"><ele>1134.0</ele><time>2026-03-22T10:45:44.999Z</time></trkpt><trkpt lat="44.26647754372486" lon="10.667757387348436"><ele>1134.0</ele><time>2026-03-22T10:45:45.999Z</time></trkpt><trkpt lat="44.266339920895106" lon="10.66771443041628"><ele>1135.25</ele><time>2026-03-22T10:45:46.999Z</time></trkpt><trkpt lat="44.26620553993149" lon="10.667643320477508"><ele>1136.5</ele><time>2026-03-22T10:45:47.999Z</time></trkpt><trkpt lat="44.26607920215221" lon="10.66754724910363"><ele>1137.75</ele><time>2026-03-22T10:45:48.999Z</time></trkpt><trkpt lat="44.26596960034165" lon="10.667442858991507"><ele>1139.0</ele><time>2026-03-22T10:45:49.999Z</time></trkpt><trkpt lat="44.26587350894553" lon="10.66730703318239"><ele>1139.0</ele><time>2026-03-22T10:45:50.999Z</time></trkpt><trkpt lat="44.26579019371731" lon="10.667146227593522"><ele>1139.0</ele><time>2026-03-22T10:45:51.999Z</time></trkpt><trkpt lat="44.265721578908355" lon="10.666952287191664"><ele>1139.0</ele><time>2026-03-22T10:45:52.999Z</time></trkpt><trkpt lat="44.26566789133528" lon="10.666732946906441"><ele>1136.0</ele><time>2026-03-22T10:45:53.999Z</time></trkpt><trkpt lat="44.26559113184017" lon="10.666518652882496"><ele>1133.0</ele><time>2026-03-22T10:45:54.999Z</time></trkpt><trkpt lat="44.2655280699716" lon="10.666306555772323"><ele>1130.0</ele><time>2026-03-22T10:45:55.999Z</time></trkpt><trkpt lat="44.26547108917845" lon="10.666125107578019"><ele>1132.0</ele><time>2026-03-22T10:45:56.999Z</time></trkpt><trkpt lat="44.26542136854376" lon="10.665973982150295"><ele>1134.0</ele><time>2026-03-22T10:45:57.999Z</time></trkpt><trkpt lat="44.26537754793651" lon="10.665828908722522"><ele>1136.0</ele><time>2026-03-22T10:45:58.999Z</time></trkpt><trkpt lat="44.265286990095206" lon="10.665709013327792"><ele>1138.0</ele><time>2026-03-22T10:45:59.999Z</time></trkpt><trkpt lat="44.26516608173738" lon="10.665606024835594"><ele>1138.0</ele><time>2026-03-22T10:46:00.999Z</time></trkpt><trkpt lat="44.265026018591854" lon="10.665499244307039"><ele>1138.0</ele><time>2026-03-22T10:46:01.999Z</time></trkpt><trkpt lat="44.26489153733974" lon="10.665375761570438"><ele>1138.0</ele><time>2026-03-22T10:46:02.999Z</time></trkpt><trkpt lat="44.264753967877326" lon="10.665236745503051"><ele>1136.6666666666665</ele><time>2026-03-22T10:46:03.999Z</time></trkpt><trkpt lat="44.2646148973044" lon="10.665084152202121"><ele>1135.3333333333333</ele><time>2026-03-22T10:46:04.999Z</time></trkpt><trkpt lat="44.264492942416275" lon="10.664932038563046"><ele>1134.0</ele><time>2026-03-22T10:46:05.999Z</time></trkpt><trkpt lat="44.26438413141051" lon="10.664783385984085"><ele>1134.0</ele><time>2026-03-22T10:46:06.999Z</time></trkpt><trkpt lat="44.26429060998316" lon="10.664645406634266"><ele>1134.0</ele><time>2026-03-22T10:46:07.999Z</time></trkpt><trkpt lat="44.26420430757961" lon="10.6645296628868"><ele>1134.0</ele><time>2026-03-22T10:46:08.999Z</time></trkpt><trkpt lat="44.26411173257636" lon="10.664440493699368"><ele>1134.0</ele><time>2026-03-22T10:46:09.999Z</time></trkpt><trkpt lat="44.263997032206845" lon="10.664383421484393"><ele>1135.75</ele><time>2026-03-22T10:46:10.999Z</time></trkpt><trkpt lat="44.26386879242594" lon="10.664373489609144"><ele>1137.5</ele><time>2026-03-22T10:46:11.999Z</time></trkpt><trkpt lat="44.26374423730307" lon="10.664397041846913"><ele>1139.25</ele><time>2026-03-22T10:46:12.999Z</time></trkpt><trkpt lat="44.26362449479911" lon="10.664398953098836"><ele>1141.0</ele><time>2026-03-22T10:46:13.999Z</time></trkpt><trkpt lat="44.263501426588995" lon="10.66435085174968"><ele>1141.0</ele><time>2026-03-22T10:46:14.999Z</time></trkpt><trkpt lat="44.26337461184649" lon="10.664259398160059"><ele>1141.0</ele><time>2026-03-22T10:46:15.999Z</time></trkpt><trkpt lat="44.26324590103447" lon="10.664129928071677"><ele>1141.0</ele><time>2026-03-22T10:46:16.998Z</time></trkpt><trkpt lat="44.26310939244132" lon="10.663982897722162"><ele>1142.6666666666665</ele><time>2026-03-22T10:46:17.998Z</time></trkpt><trkpt lat="44.26296091100492" lon="10.6638180350468"><ele>1144.3333333333333</ele><time>2026-03-22T10:46:18.998Z</time></trkpt><trkpt lat="44.2628274508745" lon="10.663652929207116"><ele>1146.0</ele><time>2026-03-22T10:46:19.998Z</time></trkpt><trkpt lat="44.26270875511342" lon="10.663492803466431"><ele>1146.0</ele><time>2026-03-22T10:46:20.998Z</time></trkpt><trkpt lat="44.262587408295204" lon="10.6633403744101"><ele>1146.0</ele><time>2026-03-22T10:46:21.998Z</time></trkpt><trkpt lat="44.26244412556299" lon="10.663207246568904"><ele>1146.0</ele><time>2026-03-22T10:46:22.998Z</time></trkpt><trkpt lat="44.26229625718656" lon="10.663099551409166"><ele>1147.75</ele><time>2026-03-22T10:46:23.998Z</time></trkpt><trkpt lat="44.26215808090677" lon="10.663012333565112"><ele>1149.5</ele><time>2026-03-22T10:46:24.998Z</time></trkpt><trkpt lat="44.26203670043639" lon="10.662912466396072"><ele>1151.25</ele><time>2026-03-22T10:46:25.998Z</time></trkpt><trkpt lat="44.261924742882975" lon="10.66278600273542"><ele>1153.0</ele><time>2026-03-22T10:46:26.998Z</time></trkpt><trkpt lat="44.261821087479284" lon="10.662619268548971"><ele>1153.0</ele><time>2026-03-22T10:46:27.998Z</time></trkpt><trkpt lat="44.2617328868973" lon="10.662438336664433"><ele>1153.0</ele><time>2026-03-22T10:46:28.998Z</time></trkpt><trkpt lat="44.261636852285555" lon="10.662278792450998"><ele>1153.0</ele><time>2026-03-22T10:46:30Z</time></trkpt><trkpt lat="44.26151176264416" lon="10.662140992269531"><ele>1150.5</ele><time>2026-03-22T10:46:31Z</time></trkpt><trkpt lat="44.2613932218887" lon="10.662020270491674"><ele>1148.0</ele><time>2026-03-22T10:46:32Z</time></trkpt><trkpt lat="44.26129588891263" lon="10.661879216926165"><ele>1145.5</ele><time>2026-03-22T10:46:33Z</time></trkpt><trkpt lat="44.26121271245536" lon="10.661694978493234"><ele>1143.0</ele><time>2026-03-22T10:46:34Z</time></trkpt><trkpt lat="44.261138485475605" lon="10.661486974838848"><ele>1143.0</ele><time>2026-03-22T10:46:35Z</time></trkpt><trkpt lat="44.261072741807375" lon="10.661277884769618"><ele>1143.0</ele><time>2026-03-22T10:46:36Z</time></trkpt><trkpt lat="44.261008745267155" lon="10.661101524846774"><ele>1143.0</ele><time>2026-03-22T10:46:37Z</time></trkpt><trkpt lat="44.260933607202205" lon="10.660950641494264"><ele>1143.0</ele><time>2026-03-22T10:46:38Z</time></trkpt><trkpt lat="44.26084827426" lon="10.660828872765205"><ele>1142.0</ele><time>2026-03-22T10:46:39Z</time></trkpt><trkpt lat="44.26075190208881" lon="10.660741715639489"><ele>1141.0</ele><time>2026-03-22T10:46:40Z</time></trkpt><trkpt lat="44.26065645733845" lon="10.660689757904947"><ele>1140.0</ele><time>2026-03-22T10:46:41Z</time></trkpt><trkpt lat="44.260575523296076" lon="10.660635691607784"><ele>1139.0</ele><time>2026-03-22T10:46:42Z</time></trkpt><trkpt lat="44.26051700697635" lon="10.6605490084621"><ele>1138.0</ele><time>2026-03-22T10:46:43Z</time></trkpt><trkpt lat="44.26048600873068" lon="10.660442423057875"><ele>1138.0</ele><time>2026-03-22T10:46:44Z</time></trkpt><trkpt lat="44.26050027544953" lon="10.660314974594563"><ele>1138.0</ele><time>2026-03-22T10:46:45Z</time></trkpt><trkpt lat="44.26055165587058" lon="10.660176919569647"><ele>1138.0</ele><time>2026-03-22T10:46:46Z</time></trkpt><trkpt lat="44.260631535720705" lon="10.660022548455535"><ele>1138.0</ele><time>2026-03-22T10:46:47Z</time></trkpt><trkpt lat="44.26072384058978" lon="10.65983532833416"><ele>1143.0</ele><time>2026-03-22T10:46:48Z</time></trkpt><trkpt lat="44.26082122183414" lon="10.659643612756525"><ele>1148.0</ele><time>2026-03-22T10:46:49Z</time></trkpt><trkpt lat="44.26093397114017" lon="10.659463450291023"><ele>1153.0</ele><time>2026-03-22T10:46:50Z</time></trkpt><trkpt lat="44.261060381460325" lon="10.659293567511137"><ele>1153.0</ele><time>2026-03-22T10:46:51Z</time></trkpt><trkpt lat="44.261199348414536" lon="10.659139815696134"><ele>1153.0</ele><time>2026-03-22T10:46:52Z</time></trkpt><trkpt lat="44.26133151337344" lon="10.658989834875461"><ele>1153.0</ele><time>2026-03-22T10:46:53Z</time></trkpt><trkpt lat="44.26145025560298" lon="10.658834790527427"><ele>1158.3333333333333</ele><time>2026-03-22T10:46:54Z</time></trkpt><trkpt lat="44.26156083165671" lon="10.65866216174204"><ele>1163.6666666666667</ele><time>2026-03-22T10:46:55Z</time></trkpt><trkpt lat="44.26166037170307" lon="10.658465683256354"><ele>1169.0</ele><time>2026-03-22T10:46:56Z</time></trkpt><trkpt lat="44.26175157943374" lon="10.658245512671906"><ele>1169.0</ele><time>2026-03-22T10:46:57Z</time></trkpt><trkpt lat="44.26183754705694" lon="10.658035681933228"><ele>1169.0</ele><time>2026-03-22T10:46:58Z</time></trkpt><trkpt lat="44.26191527501551" lon="10.657861963312117"><ele>1169.0</ele><time>2026-03-22T10:46:59Z</time></trkpt><trkpt lat="44.261999632457034" lon="10.65770570086117"><ele>1166.5</ele><time>2026-03-22T10:47:00Z</time></trkpt><trkpt lat="44.26210074917837" lon="10.657566294915261"><ele>1164.0</ele><time>2026-03-22T10:47:01Z</time></trkpt><trkpt lat="44.26222080928764" lon="10.657447303338818"><ele>1161.5</ele><time>2026-03-22T10:47:02Z</time></trkpt><trkpt lat="44.26236233924994" lon="10.657394169855648"><ele>1159.0</ele><time>2026-03-22T10:47:03Z</time></trkpt><trkpt lat="44.26251162655342" lon="10.65733548817592"><ele>1165.6666666666665</ele><time>2026-03-22T10:47:04Z</time></trkpt><trkpt lat="44.262679429619915" lon="10.65729396755231"><ele>1172.3333333333333</ele><time>2026-03-22T10:47:05Z</time></trkpt><trkpt lat="44.262841933886904" lon="10.657258404716677"><ele>1179.0</ele><time>2026-03-22T10:47:06Z</time></trkpt><trkpt lat="44.2629894653475" lon="10.657208526194108"><ele>1179.0</ele><time>2026-03-22T10:47:07Z</time></trkpt><trkpt lat="44.263154808278" lon="10.657234377934326"><ele>1179.0</ele><time>2026-03-22T10:47:08Z</time></trkpt><trkpt lat="44.26326302640151" lon="10.656989939109812"><ele>1179.0</ele><time>2026-03-22T10:47:09Z</time></trkpt><trkpt lat="44.26340852701656" lon="10.656828582688776"><ele>1179.0</ele><time>2026-03-22T10:47:10Z</time></trkpt><trkpt lat="44.26355177767467" lon="10.656648589998268"><ele>1179.0</ele><time>2026-03-22T10:47:11Z</time></trkpt><trkpt lat="44.263686149496806" lon="10.656483675050058"><ele>1179.0</ele><time>2026-03-22T10:47:12Z</time></trkpt><trkpt lat="44.26381243644386" lon="10.65633407038459"><ele>1179.0</ele><time>2026-03-22T10:47:13Z</time></trkpt><trkpt lat="44.26393556589829" lon="10.656177175178305"><ele>1179.0</ele><time>2026-03-22T10:47:14Z</time></trkpt><trkpt lat="44.26404919882663" lon="10.656004851211646"><ele>1179.0</ele><time>2026-03-22T10:47:14.999Z</time></trkpt><trkpt lat="44.264146738950245" lon="10.655817274481459"><ele>1180.75</ele><time>2026-03-22T10:47:15.999Z</time></trkpt><trkpt lat="44.26422259139643" lon="10.655633206369139"><ele>1182.5</ele><time>2026-03-22T10:47:16.999Z</time></trkpt><trkpt lat="44.26428462814958" lon="10.655476374808757"><ele>1184.25</ele><time>2026-03-22T10:47:17.999Z</time></trkpt><trkpt lat="44.264334864292344" lon="10.655346458470216"><ele>1186.0</ele><time>2026-03-22T10:47:18.999Z</time></trkpt><trkpt lat="44.264389993833646" lon="10.655238603486964"><ele>1186.0</ele><time>2026-03-22T10:47:19.999Z</time></trkpt><trkpt lat="44.264468803128885" lon="10.655166615315737"><ele>1186.0</ele><time>2026-03-22T10:47:20.999Z</time></trkpt><trkpt lat="44.26457989223338" lon="10.65518329444809"><ele>1186.0</ele><time>2026-03-22T10:47:21.999Z</time></trkpt><trkpt lat="44.264718556464956" lon="10.655180673912096"><ele>1186.0</ele><time>2026-03-22T10:47:22.999Z</time></trkpt><trkpt lat="44.264878285859034" lon="10.655149133982945"><ele>1189.25</ele><time>2026-03-22T10:47:23.999Z</time></trkpt><trkpt lat="44.26502192068185" lon="10.655139197267086"><ele>1192.5</ele><time>2026-03-22T10:47:24.999Z</time></trkpt><trkpt lat="44.26514546779041" lon="10.655127416241553"><ele>1195.75</ele><time>2026-03-22T10:47:25.999Z</time></trkpt><trkpt lat="44.265249668582136" lon="10.655091341647198"><ele>1199.0</ele><time>2026-03-22T10:47:26.999Z</time></trkpt><trkpt lat="44.26534099899784" lon="10.655035710021254"><ele>1199.0</ele><time>2026-03-22T10:47:27.999Z</time></trkpt><trkpt lat="44.26541247675108" lon="10.654932545397157"><ele>1199.0</ele><time>2026-03-22T10:47:28.999Z</time></trkpt><trkpt lat="44.26545903732384" lon="10.654785054610786"><ele>1199.0</ele><time>2026-03-22T10:47:29.999Z</time></trkpt><trkpt lat="44.26547706406378" lon="10.654584845907548"><ele>1199.0</ele><time>2026-03-22T10:47:30.999Z</time></trkpt><trkpt lat="44.26548263102953" lon="10.65436338298478"><ele>1197.75</ele><time>2026-03-22T10:47:31.999Z</time></trkpt><trkpt lat="44.26548456453229" lon="10.654158765259309"><ele>1196.5</ele><time>2026-03-22T10:47:32.999Z</time></trkpt><trkpt lat="44.265497629828715" lon="10.653975121943313"><ele>1195.25</ele><time>2026-03-22T10:47:33.999Z</time></trkpt><trkpt lat="44.26553178974494" lon="10.653806300515678"><ele>1194.0</ele><time>2026-03-22T10:47:34.999Z</time></trkpt><trkpt lat="44.26561327557849" lon="10.653671190877816"><ele>1198.25</ele><time>2026-03-22T10:47:35.999Z</time></trkpt><trkpt lat="44.265704733290754" lon="10.653552836962938"><ele>1202.5</ele><time>2026-03-22T10:47:36.999Z</time></trkpt><trkpt lat="44.26578167129395" lon="10.65342665838257"><ele>1206.75</ele><time>2026-03-22T10:47:37.999Z</time></trkpt><trkpt lat="44.26584097230744" lon="10.653274419492098"><ele>1211.0</ele><time>2026-03-22T10:47:38.999Z</time></trkpt><trkpt lat="44.26586476181273" lon="10.653072209473356"><ele>1211.0</ele><time>2026-03-22T10:47:39.999Z</time></trkpt><trkpt lat="44.26587256635879" lon="10.652842732341343"><ele>1211.0</ele><time>2026-03-22T10:47:40.999Z</time></trkpt><trkpt lat="44.26587743816792" lon="10.652605268296412"><ele>1211.0</ele><time>2026-03-22T10:47:41.999Z</time></trkpt><trkpt lat="44.26588709292821" lon="10.652399079950825"><ele>1212.0</ele><time>2026-03-22T10:47:42.999Z</time></trkpt><trkpt lat="44.26587766174512" lon="10.652221138398199"><ele>1213.0</ele><time>2026-03-22T10:47:43.999Z</time></trkpt><trkpt lat="44.265847904185605" lon="10.652037839221926"><ele>1214.0</ele><time>2026-03-22T10:47:44.999Z</time></trkpt><trkpt lat="44.26579222153084" lon="10.651857746181571"><ele>1215.0</ele><time>2026-03-22T10:47:45.999Z</time></trkpt><trkpt lat="44.26572235976266" lon="10.651705166467128"><ele>1213.8</ele><time>2026-03-22T10:47:46.999Z</time></trkpt><trkpt lat="44.26563846286995" lon="10.651581445776001"><ele>1212.6</ele><time>2026-03-22T10:47:47.999Z</time></trkpt><trkpt lat="44.26555280644445" lon="10.651484203792464"><ele>1211.4</ele><time>2026-03-22T10:47:48.999Z</time></trkpt><trkpt lat="44.26547234233041" lon="10.651416285532754"><ele>1210.2</ele><time>2026-03-22T10:47:49.999Z</time></trkpt><trkpt lat="44.26541071685886" lon="10.651335032081603"><ele>1209.0</ele><time>2026-03-22T10:47:50.999Z</time></trkpt><trkpt lat="44.26538090660909" lon="10.651217027845986"><ele>1210.25</ele><time>2026-03-22T10:47:51.999Z</time></trkpt><trkpt lat="44.26537345160062" lon="10.651066498758595"><ele>1211.5</ele><time>2026-03-22T10:47:52.999Z</time></trkpt><trkpt lat="44.26539518436033" lon="10.650902222559136"><ele>1212.75</ele><time>2026-03-22T10:47:53.999Z</time></trkpt><trkpt lat="44.265442413332" lon="10.650700687750286"><ele>1214.0</ele><time>2026-03-22T10:47:54.999Z</time></trkpt><trkpt lat="44.26546927599965" lon="10.650521652379245"><ele>1214.0</ele><time>2026-03-22T10:47:55.999Z</time></trkpt><trkpt lat="44.26551330237613" lon="10.650364208497582"><ele>1214.0</ele><time>2026-03-22T10:47:56.999Z</time></trkpt><trkpt lat="44.26553089022727" lon="10.650230385486266"><ele>1214.0</ele><time>2026-03-22T10:47:57.999Z</time></trkpt><trkpt lat="44.26552187510728" lon="10.650089366188514"><ele>1214.0</ele><time>2026-03-22T10:47:58.999Z</time></trkpt><trkpt lat="44.26547544032498" lon="10.649928838610784"><ele>1214.0</ele><time>2026-03-22T10:47:59.999Z</time></trkpt><trkpt lat="44.265392339868185" lon="10.649801713238764"><ele>1214.3333333333335</ele><time>2026-03-22T10:48:00.999Z</time></trkpt><trkpt lat="44.26525723986945" lon="10.649748617437755"><ele>1214.6666666666667</ele><time>2026-03-22T10:48:01.999Z</time></trkpt><trkpt lat="44.26511067629299" lon="10.649664471372985"><ele>1215.0</ele><time>2026-03-22T10:48:02.999Z</time></trkpt><trkpt lat="44.26493703675489" lon="10.649632529790079"><ele>1215.0</ele><time>2026-03-22T10:48:03.999Z</time></trkpt><trkpt lat="44.26478667554672" lon="10.64959603030449"><ele>1215.0</ele><time>2026-03-22T10:48:04.999Z</time></trkpt><trkpt lat="44.264654749936625" lon="10.649574000558756"><ele>1215.0</ele><time>2026-03-22T10:48:05.999Z</time></trkpt><trkpt lat="44.26454133956523" lon="10.649542350009657"><ele>1215.0</ele><time>2026-03-22T10:48:06.999Z</time></trkpt><trkpt lat="44.26443632974102" lon="10.649446254925838"><ele>1214.0</ele><time>2026-03-22T10:48:07.999Z</time></trkpt><trkpt lat="44.26433489595846" lon="10.64929442591332"><ele>1213.0</ele><time>2026-03-22T10:48:08.999Z</time></trkpt><trkpt lat="44.26422551357206" lon="10.649132833103806"><ele>1212.0</ele><time>2026-03-22T10:48:09.999Z</time></trkpt><trkpt lat="44.26407799918908" lon="10.648990478055733"><ele>1208.6666666666667</ele><time>2026-03-22T10:48:10.999Z</time></trkpt><trkpt lat="44.26394083997886" lon="10.64888201281038"><ele>1205.3333333333335</ele><time>2026-03-22T10:48:11.999Z</time></trkpt><trkpt lat="44.263812098087286" lon="10.648768330538068"><ele>1202.0</ele><time>2026-03-22T10:48:12.999Z</time></trkpt><trkpt lat="44.26368325382548" lon="10.648660128040905"><ele>1205.0</ele><time>2026-03-22T10:48:13.999Z</time></trkpt><trkpt lat="44.2635466672463" lon="10.648553666753672"><ele>1208.0</ele><time>2026-03-22T10:48:14.998Z</time></trkpt><trkpt lat="44.2634082681521" lon="10.64846357561563"><ele>1211.0</ele><time>2026-03-22T10:48:15.998Z</time></trkpt><trkpt lat="44.26326429526549" lon="10.648391523306321"><ele>1211.0</ele><time>2026-03-22T10:48:16.998Z</time></trkpt><trkpt lat="44.26312246222866" lon="10.64835149071983"><ele>1211.0</ele><time>2026-03-22T10:48:17.998Z</time></trkpt><trkpt lat="44.26299375724434" lon="10.648326259788746"><ele>1211.0</ele><time>2026-03-22T10:48:18.998Z</time></trkpt><trkpt lat="44.26287599672693" lon="10.64830475664155"><ele>1211.0</ele><time>2026-03-22T10:48:19.998Z</time></trkpt><trkpt lat="44.26276969942857" lon="10.648305772726603"><ele>1210.5</ele><time>2026-03-22T10:48:20.998Z</time></trkpt><trkpt lat="44.262662924328616" lon="10.648345288265"><ele>1210.0</ele><time>2026-03-22T10:48:21.998Z</time></trkpt><trkpt lat="44.2625542302769" lon="10.648431202350169"><ele>1209.5</ele><time>2026-03-22T10:48:22.998Z</time></trkpt><trkpt lat="44.262447695696075" lon="10.648508141819722"><ele>1209.0</ele><time>2026-03-22T10:48:23.998Z</time></trkpt><trkpt lat="44.26231256643177" lon="10.648547948215004"><ele>1206.3333333333333</ele><time>2026-03-22T10:48:24.998Z</time></trkpt><trkpt lat="44.262152998068935" lon="10.648548662194296"><ele>1203.6666666666665</ele><time>2026-03-22T10:48:25.998Z</time></trkpt><trkpt lat="44.26199445966223" lon="10.648544923722158"><ele>1201.0</ele><time>2026-03-22T10:48:26.998Z</time></trkpt><trkpt lat="44.26185467044466" lon="10.648552457793404"><ele>1201.0</ele><time>2026-03-22T10:48:27.998Z</time></trkpt><trkpt lat="44.26172256033859" lon="10.648574686548082"><ele>1201.0</ele><time>2026-03-22T10:48:28.998Z</time></trkpt><trkpt lat="44.26161674519858" lon="10.648624538370873"><ele>1201.0</ele><time>2026-03-22T10:48:29.998Z</time></trkpt><trkpt lat="44.26152491260594" lon="10.648661420419213"><ele>1201.0</ele><time>2026-03-22T10:48:30.998Z</time></trkpt><trkpt lat="44.261441220923864" lon="10.64868223602777"><ele>1201.0</ele><time>2026-03-22T10:48:31.998Z</time></trkpt><trkpt lat="44.261361523767896" lon="10.648651302097031"><ele>1198.5</ele><time>2026-03-22T10:48:32.998Z</time></trkpt><trkpt lat="44.261287230225335" lon="10.648562952722749"><ele>1196.0</ele><time>2026-03-22T10:48:33.998Z</time></trkpt><trkpt lat="44.26122216860385" lon="10.648414795582795"><ele>1193.5</ele><time>2026-03-22T10:48:34.998Z</time></trkpt><trkpt lat="44.26116555562513" lon="10.648255057038906"><ele>1191.0</ele><time>2026-03-22T10:48:36Z</time></trkpt><trkpt lat="44.261087236749994" lon="10.648119212511277"><ele>1191.0</ele><time>2026-03-22T10:48:37Z</time></trkpt><trkpt lat="44.26099353670782" lon="10.648012398405841"><ele>1191.0</ele><time>2026-03-22T10:48:38Z</time></trkpt><trkpt lat="44.26089244168033" lon="10.647931859392056"><ele>1191.0</ele><time>2026-03-22T10:48:39Z</time></trkpt><trkpt lat="44.26078869937874" lon="10.647892548561272"><ele>1191.0</ele><time>2026-03-22T10:48:40Z</time></trkpt><trkpt lat="44.26068051789989" lon="10.647893853903334"><ele>1196.0</ele><time>2026-03-22T10:48:41Z</time></trkpt><trkpt lat="44.26057154056764" lon="10.647938258468711"><ele>1201.0</ele><time>2026-03-22T10:48:42Z</time></trkpt><trkpt lat="44.26046393023083" lon="10.648020470983669"><ele>1206.0</ele><time>2026-03-22T10:48:43Z</time></trkpt><trkpt lat="44.26036005227775" lon="10.648135493641334"><ele>1211.0</ele><time>2026-03-22T10:48:44Z</time></trkpt><trkpt lat="44.26025741006137" lon="10.648273904398442"><ele>1211.0</ele><time>2026-03-22T10:48:45Z</time></trkpt><trkpt lat="44.26016685419036" lon="10.648427216781341"><ele>1211.0</ele><time>2026-03-22T10:48:46Z</time></trkpt><trkpt lat="44.260101436378015" lon="10.648602112435944"><ele>1211.0</ele><time>2026-03-22T10:48:47Z</time></trkpt><trkpt lat="44.26006181161494" lon="10.648783526586824"><ele>1211.0</ele><time>2026-03-22T10:48:48Z</time></trkpt><trkpt lat="44.260015408881344" lon="10.648937598935175"><ele>1208.5</ele><time>2026-03-22T10:48:49Z</time></trkpt><trkpt lat="44.259938502713176" lon="10.649063394124862"><ele>1206.0</ele><time>2026-03-22T10:48:50Z</time></trkpt><trkpt lat="44.2598271560764" lon="10.649134811636731"><ele>1203.5</ele><time>2026-03-22T10:48:51Z</time></trkpt><trkpt lat="44.25970422415059" lon="10.649183588613694"><ele>1201.0</ele><time>2026-03-22T10:48:52Z</time></trkpt><trkpt lat="44.25953441174304" lon="10.649270329666116"><ele>1201.0</ele><time>2026-03-22T10:48:53Z</time></trkpt><trkpt lat="44.259370654459644" lon="10.649349095849521"><ele>1201.0</ele><time>2026-03-22T10:48:54Z</time></trkpt><trkpt lat="44.259207223805035" lon="10.649401849466145"><ele>1201.0</ele><time>2026-03-22T10:48:55Z</time></trkpt><trkpt lat="44.259057887044115" lon="10.649442187733593"><ele>1195.25</ele><time>2026-03-22T10:48:56Z</time></trkpt><trkpt lat="44.258917416191586" lon="10.649472427754922"><ele>1189.5</ele><time>2026-03-22T10:48:57Z</time></trkpt><trkpt lat="44.25878449433035" lon="10.64952052776504"><ele>1183.75</ele><time>2026-03-22T10:48:58Z</time></trkpt><trkpt lat="44.25865053188824" lon="10.64955516264017"><ele>1178.0</ele><time>2026-03-22T10:48:59Z</time></trkpt><trkpt lat="44.258536762972355" lon="10.64967936264784"><ele>1178.0</ele><time>2026-03-22T10:49:00Z</time></trkpt><trkpt lat="44.25843309661315" lon="10.649808976712043"><ele>1178.0</ele><time>2026-03-22T10:49:01Z</time></trkpt><trkpt lat="44.25833730922448" lon="10.649940851001963"><ele>1178.0</ele><time>2026-03-22T10:49:02Z</time></trkpt><trkpt lat="44.25823213502434" lon="10.650064581446419"><ele>1178.0</ele><time>2026-03-22T10:49:03Z</time></trkpt><trkpt lat="44.25811387281262" lon="10.650132389387993"><ele>1179.3333333333335</ele><time>2026-03-22T10:49:04Z</time></trkpt><trkpt lat="44.25796841922214" lon="10.650166085183127"><ele>1180.6666666666667</ele><time>2026-03-22T10:49:05Z</time></trkpt><trkpt lat="44.25779278386268" lon="10.65016763941286"><ele>1182.0</ele><time>2026-03-22T10:49:06Z</time></trkpt><trkpt lat="44.25760172704924" lon="10.650155826783848"><ele>1182.0</ele><time>2026-03-22T10:49:07Z</time></trkpt><trkpt lat="44.25740426459029" lon="10.650129751931065"><ele>1182.0</ele><time>2026-03-22T10:49:08Z</time></trkpt><trkpt lat="44.257217532364606" lon="10.650102694729654"><ele>1182.0</ele><time>2026-03-22T10:49:09Z</time></trkpt><trkpt lat="44.25703885351943" lon="10.650061467276624"><ele>1176.6666666666667</ele><time>2026-03-22T10:49:10Z</time></trkpt><trkpt lat="44.256870051336534" lon="10.650013212747375"><ele>1171.3333333333335</ele><time>2026-03-22T10:49:11Z</time></trkpt><trkpt lat="44.25671680102101" lon="10.649968176496625"><ele>1166.0</ele><time>2026-03-22T10:49:12Z</time></trkpt><trkpt lat="44.256576598294274" lon="10.649928455985059"><ele>1166.0</ele><time>2026-03-22T10:49:13Z</time></trkpt><trkpt lat="44.256454005421276" lon="10.649890983144129"><ele>1166.0</ele><time>2026-03-22T10:49:13.999Z</time></trkpt><trkpt lat="44.25634643877837" lon="10.64985562895911"><ele>1166.0</ele><time>2026-03-22T10:49:14.999Z</time></trkpt><trkpt lat="44.2562530594539" lon="10.649837758769873"><ele>1166.0</ele><time>2026-03-22T10:49:15.999Z</time></trkpt><trkpt lat="44.25617868352122" lon="10.649796085531694"><ele>1166.0</ele><time>2026-03-22T10:49:16.999Z</time></trkpt><trkpt lat="44.256129320971716" lon="10.649715652126119"><ele>1160.5</ele><time>2026-03-22T10:49:17.999Z</time></trkpt><trkpt lat="44.2561098694435" lon="10.649597179797727"><ele>1155.0</ele><time>2026-03-22T10:49:18.999Z</time></trkpt><trkpt lat="44.25613002988359" lon="10.649419074542216"><ele>1149.5</ele><time>2026-03-22T10:49:19.999Z</time></trkpt><trkpt lat="44.256180902733" lon="10.649208672811111"><ele>1144.0</ele><time>2026-03-22T10:49:20.999Z</time></trkpt><trkpt lat="44.256254001082034" lon="10.648985036899537"><ele>1142.0</ele><time>2026-03-22T10:49:21.999Z</time></trkpt><trkpt lat="44.25634802343597" lon="10.648775569783155"><ele>1140.0</ele><time>2026-03-22T10:49:22.999Z</time></trkpt><trkpt lat="44.25645095767966" lon="10.648590540753615"><ele>1138.0</ele><time>2026-03-22T10:49:23.999Z</time></trkpt><trkpt lat="44.25653878809769" lon="10.648387731843222"><ele>1139.6666666666665</ele><time>2026-03-22T10:49:24.999Z</time></trkpt><trkpt lat="44.25660860915747" lon="10.648146859577936"><ele>1141.3333333333333</ele><time>2026-03-22T10:49:25.999Z</time></trkpt><trkpt lat="44.25666458928697" lon="10.647893391603342"><ele>1143.0</ele><time>2026-03-22T10:49:26.999Z</time></trkpt><trkpt lat="44.256734645028004" lon="10.647646034164259"><ele>1143.0</ele><time>2026-03-22T10:49:27.999Z</time></trkpt><trkpt lat="44.25682953683907" lon="10.64740984805914"><ele>1143.0</ele><time>2026-03-22T10:49:28.999Z</time></trkpt><trkpt lat="44.256940771021995" lon="10.647177186649767"><ele>1143.0</ele><time>2026-03-22T10:49:29.999Z</time></trkpt><trkpt lat="44.2570403611358" lon="10.646947645739955"><ele>1147.6666666666667</ele><time>2026-03-22T10:49:30.999Z</time></trkpt><trkpt lat="44.257131937170286" lon="10.64672719681"><ele>1152.3333333333335</ele><time>2026-03-22T10:49:31.999Z</time></trkpt><trkpt lat="44.257214042374" lon="10.646519217899606"><ele>1157.0</ele><time>2026-03-22T10:49:32.999Z</time></trkpt><trkpt lat="44.25728610409884" lon="10.646322620970807"><ele>1157.0</ele><time>2026-03-22T10:49:33.999Z</time></trkpt><trkpt lat="44.257349204802345" lon="10.64613418468167"><ele>1157.0</ele><time>2026-03-22T10:49:34.999Z</time></trkpt><trkpt lat="44.25740919634876" lon="10.645962513057274"><ele>1157.0</ele><time>2026-03-22T10:49:35.999Z</time></trkpt><trkpt lat="44.25745922599261" lon="10.645812262621623"><ele>1157.0</ele><time>2026-03-22T10:49:36.999Z</time></trkpt><trkpt lat="44.25749262521321" lon="10.645664215907821"><ele>1152.5</ele><time>2026-03-22T10:49:37.999Z</time></trkpt><trkpt lat="44.2574940949309" lon="10.645493831948572"><ele>1148.0</ele><time>2026-03-22T10:49:38.999Z</time></trkpt><trkpt lat="44.257465218754305" lon="10.645329543201436"><ele>1143.5</ele><time>2026-03-22T10:49:39.999Z</time></trkpt><trkpt lat="44.25743321871882" lon="10.64517384880995"><ele>1139.0</ele><time>2026-03-22T10:49:40.999Z</time></trkpt><trkpt lat="44.25743135741214" lon="10.645015642845658"><ele>1136.75</ele><time>2026-03-22T10:49:41.999Z</time></trkpt><trkpt lat="44.25747010287811" lon="10.64485065834641"><ele>1134.5</ele><time>2026-03-22T10:49:42.999Z</time></trkpt><trkpt lat="44.257563079585154" lon="10.644722704914404"><ele>1132.25</ele><time>2026-03-22T10:49:43.999Z</time></trkpt><trkpt lat="44.25765545759856" lon="10.644602906335841"><ele>1130.0</ele><time>2026-03-22T10:49:44.999Z</time></trkpt><trkpt lat="44.25772152006642" lon="10.644465892572246"><ele>1125.0</ele><time>2026-03-22T10:49:45.999Z</time></trkpt><trkpt lat="44.25777757875195" lon="10.644301228641813"><ele>1120.0</ele><time>2026-03-22T10:49:46.999Z</time></trkpt><trkpt lat="44.25781408811018" lon="10.644090074508451"><ele>1115.0</ele><time>2026-03-22T10:49:47.999Z</time></trkpt><trkpt lat="44.257856603274966" lon="10.643867229720207"><ele>1115.0</ele><time>2026-03-22T10:49:48.999Z</time></trkpt><trkpt lat="44.25791363818492" lon="10.643652314832261"><ele>1115.0</ele><time>2026-03-22T10:49:49.999Z</time></trkpt><trkpt lat="44.257985416930225" lon="10.643436006803965"><ele>1115.0</ele><time>2026-03-22T10:49:50.999Z</time></trkpt><trkpt lat="44.258073893670506" lon="10.643218049708587"><ele>1116.3333333333335</ele><time>2026-03-22T10:49:51.999Z</time></trkpt><trkpt lat="44.258170194231056" lon="10.642998406250681"><ele>1117.6666666666667</ele><time>2026-03-22T10:49:52.999Z</time></trkpt><trkpt lat="44.258266461977996" lon="10.642788733012976"><ele>1119.0</ele><time>2026-03-22T10:49:53.999Z</time></trkpt><trkpt lat="44.25835392170694" lon="10.642590440636507"><ele>1119.0</ele><time>2026-03-22T10:49:54.999Z</time></trkpt><trkpt lat="44.25843718467791" lon="10.642410180797764"><ele>1119.0</ele><time>2026-03-22T10:49:55.999Z</time></trkpt><trkpt lat="44.25851809490736" lon="10.642226906129075"><ele>1119.0</ele><time>2026-03-22T10:49:56.999Z</time></trkpt><trkpt lat="44.25858816211775" lon="10.642046955761293"><ele>1118.0</ele><time>2026-03-22T10:49:57.999Z</time></trkpt><trkpt lat="44.258647151559636" lon="10.6418885218441"><ele>1117.0</ele><time>2026-03-22T10:49:58.999Z</time></trkpt><trkpt lat="44.25870640409939" lon="10.641747578585836"><ele>1116.0</ele><time>2026-03-22T10:49:59.999Z</time></trkpt><trkpt lat="44.25876339838018" lon="10.641624880736162"><ele>1115.0</ele><time>2026-03-22T10:50:00.999Z</time></trkpt><trkpt lat="44.25880355122082" lon="10.64151913200469"><ele>1114.0</ele><time>2026-03-22T10:50:01.999Z</time></trkpt><trkpt lat="44.258812688313505" lon="10.641413318803654"><ele>1114.0</ele><time>2026-03-22T10:50:02.999Z</time></trkpt><trkpt lat="44.25877431779988" lon="10.64129971478664"><ele>1114.0</ele><time>2026-03-22T10:50:03.999Z</time></trkpt><trkpt lat="44.25868952590515" lon="10.641183010857613"><ele>1114.0</ele><time>2026-03-22T10:50:04.999Z</time></trkpt><trkpt lat="44.25858710049533" lon="10.641080036389639"><ele>1114.0</ele><time>2026-03-22T10:50:05.999Z</time></trkpt><trkpt lat="44.25849173977963" lon="10.640973089235757"><ele>1114.75</ele><time>2026-03-22T10:50:06.999Z</time></trkpt><trkpt lat="44.25841061284996" lon="10.64085328624922"><ele>1115.5</ele><time>2026-03-22T10:50:07.999Z</time></trkpt><trkpt lat="44.258318247878314" lon="10.64073291083517"><ele>1116.25</ele><time>2026-03-22T10:50:08.999Z</time></trkpt><trkpt lat="44.2582133013669" lon="10.640640981465832"><ele>1117.0</ele><time>2026-03-22T10:50:09.999Z</time></trkpt><trkpt lat="44.258108164268776" lon="10.640579536361882"><ele>1113.2</ele><time>2026-03-22T10:50:10.999Z</time></trkpt><trkpt lat="44.25801103321045" lon="10.64051826986797"><ele>1109.4</ele><time>2026-03-22T10:50:11.998Z</time></trkpt><trkpt lat="44.25792683264654" lon="10.640438004183189"><ele>1105.6</ele><time>2026-03-22T10:50:12.998Z</time></trkpt><trkpt lat="44.25786917599354" lon="10.640337388762903"><ele>1101.8</ele><time>2026-03-22T10:50:13.998Z</time></trkpt><trkpt lat="44.25784591291344" lon="10.64020979706534"><ele>1098.0</ele><time>2026-03-22T10:50:14.998Z</time></trkpt><trkpt lat="44.25786402760492" lon="10.640063255759582"><ele>1098.0</ele><time>2026-03-22T10:50:15.998Z</time></trkpt><trkpt lat="44.257905548252275" lon="10.63991141829716"><ele>1098.0</ele><time>2026-03-22T10:50:16.998Z</time></trkpt><trkpt lat="44.25793825585133" lon="10.63976101756194"><ele>1098.0</ele><time>2026-03-22T10:50:17.998Z</time></trkpt><trkpt lat="44.25793936019651" lon="10.639603861882298"><ele>1098.0</ele><time>2026-03-22T10:50:18.998Z</time></trkpt><trkpt lat="44.2579036337022" lon="10.639451033571074"><ele>1098.75</ele><time>2026-03-22T10:50:19.998Z</time></trkpt><trkpt lat="44.257833664378396" lon="10.639327646779993"><ele>1099.5</ele><time>2026-03-22T10:50:20.998Z</time></trkpt><trkpt lat="44.257731331599096" lon="10.639231265628894"><ele>1100.25</ele><time>2026-03-22T10:50:21.998Z</time></trkpt><trkpt lat="44.25761123724356" lon="10.63916277570653"><ele>1101.0</ele><time>2026-03-22T10:50:22.998Z</time></trkpt><trkpt lat="44.25750030448647" lon="10.639112674086686"><ele>1101.0</ele><time>2026-03-22T10:50:23.998Z</time></trkpt><trkpt lat="44.257409274228706" lon="10.639042553031098"><ele>1101.0</ele><time>2026-03-22T10:50:24.998Z</time></trkpt><trkpt lat="44.25733318736073" lon="10.63895000386399"><ele>1101.0</ele><time>2026-03-22T10:50:25.998Z</time></trkpt><trkpt lat="44.25727116900867" lon="10.638828025577125"><ele>1101.0</ele><time>2026-03-22T10:50:26.998Z</time></trkpt><trkpt lat="44.25722832043124" lon="10.638687120672499"><ele>1101.0</ele><time>2026-03-22T10:50:27.998Z</time></trkpt><trkpt lat="44.25720545964377" lon="10.638544070156229"><ele>1101.0</ele><time>2026-03-22T10:50:28.998Z</time></trkpt><trkpt lat="44.257182837101055" lon="10.638432509490752"><ele>1101.0</ele><time>2026-03-22T10:50:29.998Z</time></trkpt><trkpt lat="44.257135562373676" lon="10.638344937304668"><ele>1101.0</ele><time>2026-03-22T10:50:30.998Z</time></trkpt><trkpt lat="44.257054082504844" lon="10.638283118116512"><ele>1101.0</ele><time>2026-03-22T10:50:31.998Z</time></trkpt><trkpt lat="44.25695301767353" lon="10.638265202638365"><ele>1101.0</ele><time>2026-03-22T10:50:32.998Z</time></trkpt><trkpt lat="44.256839816554475" lon="10.638297509846579"><ele>1101.0</ele><time>2026-03-22T10:50:33.998Z</time></trkpt><trkpt lat="44.256724132052135" lon="10.638383194186982"><ele>1101.0</ele><time>2026-03-22T10:50:34.998Z</time></trkpt><trkpt lat="44.256620220739755" lon="10.63850698580384"><ele>1101.0</ele><time>2026-03-22T10:50:35.998Z</time></trkpt><trkpt lat="44.2565232147071" lon="10.638615459150627"><ele>1101.0</ele><time>2026-03-22T10:50:36.998Z</time></trkpt><trkpt lat="44.256424882530816" lon="10.638683645929865"><ele>1097.25</ele><time>2026-03-22T10:50:37.998Z</time></trkpt><trkpt lat="44.25631670320361" lon="10.638713581768478"><ele>1093.5</ele><time>2026-03-22T10:50:38.998Z</time></trkpt><trkpt lat="44.25618317698557" lon="10.638674842255574"><ele>1089.75</ele><time>2026-03-22T10:50:39.998Z</time></trkpt><trkpt lat="44.25605316393736" lon="10.638615061461033"><ele>1086.0</ele><time>2026-03-22T10:50:41Z</time></trkpt><trkpt lat="44.25592812639611" lon="10.638533013464176"><ele>1086.0</ele><time>2026-03-22T10:50:42Z</time></trkpt><trkpt lat="44.25582377317493" lon="10.638437728169094"><ele>1086.0</ele><time>2026-03-22T10:50:43Z</time></trkpt><trkpt lat="44.25574750192253" lon="10.638344686718346"><ele>1086.0</ele><time>2026-03-22T10:50:44Z</time></trkpt><trkpt lat="44.255696232237504" lon="10.638239944893002"><ele>1086.0</ele><time>2026-03-22T10:50:45Z</time></trkpt><trkpt lat="44.25567400591009" lon="10.638103793110767"><ele>1086.0</ele><time>2026-03-22T10:50:46Z</time></trkpt><trkpt lat="44.255687161216514" lon="10.63792871450237"><ele>1087.0</ele><time>2026-03-22T10:50:47Z</time></trkpt><trkpt lat="44.25570952914077" lon="10.637730625737829"><ele>1088.0</ele><time>2026-03-22T10:50:48Z</time></trkpt><trkpt lat="44.25570525713267" lon="10.637515002340063"><ele>1089.0</ele><time>2026-03-22T10:50:49Z</time></trkpt><trkpt lat="44.25568474315235" lon="10.63730470703485"><ele>1089.0</ele><time>2026-03-22T10:50:50Z</time></trkpt><trkpt lat="44.25567719048843" lon="10.637106952347963"><ele>1089.0</ele><time>2026-03-22T10:50:51Z</time></trkpt><trkpt lat="44.25568773694737" lon="10.63692966696952"><ele>1089.0</ele><time>2026-03-22T10:50:52Z</time></trkpt><trkpt lat="44.25569501284876" lon="10.636776042633777"><ele>1089.0</ele><time>2026-03-22T10:50:53Z</time></trkpt><trkpt lat="44.25567389488744" lon="10.636627803648961"><ele>1088.8333333333333</ele><time>2026-03-22T10:50:54Z</time></trkpt><trkpt lat="44.255620988935135" lon="10.636484475150022"><ele>1088.6666666666667</ele><time>2026-03-22T10:50:55Z</time></trkpt><trkpt lat="44.25556430215006" lon="10.636371237508069"><ele>1088.5</ele><time>2026-03-22T10:50:56Z</time></trkpt><trkpt lat="44.25553183608288" lon="10.63626120246175"><ele>1088.3333333333335</ele><time>2026-03-22T10:50:57Z</time></trkpt><trkpt lat="44.255526089733884" lon="10.636154675860144"><ele>1088.1666666666667</ele><time>2026-03-22T10:50:58Z</time></trkpt><trkpt lat="44.255547605179" lon="10.636057587077854"><ele>1088.0</ele><time>2026-03-22T10:50:59Z</time></trkpt><trkpt lat="44.255622400147736" lon="10.635993013903837"><ele>1085.2</ele><time>2026-03-22T10:51:00Z</time></trkpt><trkpt lat="44.25570688794904" lon="10.635917584847036"><ele>1082.4</ele><time>2026-03-22T10:51:01Z</time></trkpt><trkpt lat="44.25581182000595" lon="10.635862876531165"><ele>1079.6000000000001</ele><time>2026-03-22T10:51:02Z</time></trkpt><trkpt lat="44.255872449004244" lon="10.635790003490666"><ele>1076.8</ele><time>2026-03-22T10:51:03Z</time></trkpt><trkpt lat="44.25594397982312" lon="10.635619627695368"><ele>1074.0</ele><time>2026-03-22T10:51:04Z</time></trkpt><trkpt lat="44.25600465279433" lon="10.635437922774303"><ele>1072.4</ele><time>2026-03-22T10:51:05Z</time></trkpt><trkpt lat="44.25605411396536" lon="10.635265622828483"><ele>1070.8000000000002</ele><time>2026-03-22T10:51:06Z</time></trkpt><trkpt lat="44.25610890839817" lon="10.63512684507932"><ele>1069.1999999999998</ele><time>2026-03-22T10:51:07Z</time></trkpt><trkpt lat="44.25619194633753" lon="10.635029747707867"><ele>1067.6</ele><time>2026-03-22T10:51:08Z</time></trkpt><trkpt lat="44.25622788940655" lon="10.63492327959544"><ele>1066.0</ele><time>2026-03-22T10:51:09Z</time></trkpt><trkpt lat="44.25625710782701" lon="10.634824662087773"><ele>1066.0</ele><time>2026-03-22T10:51:58.999Z</time></trkpt><trkpt lat="44.25622058694666" lon="10.63468312702488"><ele>1066.0</ele><time>2026-03-22T10:52:00.999Z</time></trkpt><trkpt lat="44.25617189400607" lon="10.63461741925291"><ele>1066.0</ele><time>2026-03-22T10:52:01.999Z</time></trkpt><trkpt lat="44.25610666351876" lon="10.634591584541376"><ele>1066.0</ele><time>2026-03-22T10:52:02.999Z</time></trkpt><trkpt lat="44.256017942970765" lon="10.63459659333688"><ele>1066.0</ele><time>2026-03-22T10:52:03.999Z</time></trkpt><trkpt lat="44.25592566673954" lon="10.634619835848316"><ele>1066.0</ele><time>2026-03-22T10:52:04.999Z</time></trkpt><trkpt lat="44.25583278608635" lon="10.634657162178323"><ele>1066.0</ele><time>2026-03-22T10:52:05.999Z</time></trkpt><trkpt lat="44.25575069669389" lon="10.634712717618777"><ele>1066.0</ele><time>2026-03-22T10:52:06.999Z</time></trkpt><trkpt lat="44.25568188334721" lon="10.634763147565835"><ele>1066.0</ele><time>2026-03-22T10:52:07.999Z</time></trkpt><trkpt lat="44.255553850874044" lon="10.634771873639888"><ele>1066.0</ele><time>2026-03-22T10:52:09.999Z</time></trkpt><trkpt lat="44.25549088469667" lon="10.634722414239755"><ele>1066.0</ele><time>2026-03-22T10:52:10.998Z</time></trkpt><trkpt lat="44.25543417099166" lon="10.634613860773234"><ele>1061.25</ele><time>2026-03-22T10:52:11.998Z</time></trkpt><trkpt lat="44.25537547625568" lon="10.634493103830524"><ele>1056.5</ele><time>2026-03-22T10:52:12.998Z</time></trkpt><trkpt lat="44.25531589385947" lon="10.634367939882685"><ele>1051.75</ele><time>2026-03-22T10:52:13.998Z</time></trkpt><trkpt lat="44.25525552084007" lon="10.634220583483433"><ele>1047.0</ele><time>2026-03-22T10:52:14.998Z</time></trkpt><trkpt lat="44.25519430206141" lon="10.634054528234168"><ele>1047.0</ele><time>2026-03-22T10:52:15.998Z</time></trkpt><trkpt lat="44.25513825055614" lon="10.633873952641213"><ele>1047.0</ele><time>2026-03-22T10:52:16.998Z</time></trkpt><trkpt lat="44.25508169354866" lon="10.633691929382241"><ele>1047.0</ele><time>2026-03-22T10:52:17.998Z</time></trkpt><trkpt lat="44.255023928056694" lon="10.633508694110784"><ele>1047.0</ele><time>2026-03-22T10:52:18.998Z</time></trkpt><trkpt lat="44.25496607298382" lon="10.633329818167994"><ele>1048.25</ele><time>2026-03-22T10:52:19.998Z</time></trkpt><trkpt lat="44.25491021846378" lon="10.633166776204932"><ele>1049.5</ele><time>2026-03-22T10:52:20.998Z</time></trkpt><trkpt lat="44.25486296753415" lon="10.633014975697979"><ele>1050.75</ele><time>2026-03-22T10:52:21.998Z</time></trkpt><trkpt lat="44.254814231499786" lon="10.632863443879856"><ele>1052.0</ele><time>2026-03-22T10:52:22.998Z</time></trkpt><trkpt lat="44.25475427632929" lon="10.632721487311077"><ele>1048.4</ele><time>2026-03-22T10:52:23.998Z</time></trkpt><trkpt lat="44.254684166336105" lon="10.632606592125422"><ele>1044.8000000000002</ele><time>2026-03-22T10:52:24.998Z</time></trkpt><trkpt lat="44.2546133290476" lon="10.632519302106745"><ele>1041.2</ele><time>2026-03-22T10:52:25.998Z</time></trkpt><trkpt lat="44.25454406441138" lon="10.632441842792634"><ele>1037.6000000000001</ele><time>2026-03-22T10:52:26.998Z</time></trkpt><trkpt lat="44.25447089739795" lon="10.632358795351179"><ele>1034.0</ele><time>2026-03-22T10:52:27.998Z</time></trkpt><trkpt lat="44.254407609408034" lon="10.632276109451205"><ele>1034.0</ele><time>2026-03-22T10:52:28.998Z</time></trkpt><trkpt lat="44.254358413385596" lon="10.632192816959842"><ele>1034.0</ele><time>2026-03-22T10:52:29.998Z</time></trkpt><trkpt lat="44.254322475163725" lon="10.632109606961011"><ele>1034.0</ele><time>2026-03-22T10:52:30.998Z</time></trkpt><trkpt lat="44.25429842932818" lon="10.632028275157666"><ele>1034.0</ele><time>2026-03-22T10:52:31.998Z</time></trkpt><trkpt lat="44.25428261969602" lon="10.631933856078783"><ele>1034.0</ele><time>2026-03-22T10:52:32.998Z</time></trkpt><trkpt lat="44.254266339323316" lon="10.631826247354406"><ele>1034.0</ele><time>2026-03-22T10:52:33.998Z</time></trkpt><trkpt lat="44.25424671168634" lon="10.631710272566574"><ele>1034.0</ele><time>2026-03-22T10:52:34.998Z</time></trkpt><trkpt lat="44.25422996750347" lon="10.631587791307766"><ele>1033.5</ele><time>2026-03-22T10:52:35.998Z</time></trkpt><trkpt lat="44.25422048566384" lon="10.631469332859664"><ele>1033.0</ele><time>2026-03-22T10:52:36.998Z</time></trkpt><trkpt lat="44.25421442628482" lon="10.631379590427603"><ele>1032.5</ele><time>2026-03-22T10:52:37.998Z</time></trkpt><trkpt lat="44.25420758620187" lon="10.63126281239967"><ele>1032.0</ele><time>2026-03-22T10:52:39.998Z</time></trkpt><trkpt lat="44.254217194563545" lon="10.631101268448667"><ele>1031.5</ele><time>2026-03-22T10:52:41.998Z</time></trkpt><trkpt lat="44.25423348818103" lon="10.631009997601288"><ele>1031.0</ele><time>2026-03-22T10:52:42.998Z</time></trkpt><trkpt lat="44.25427361596194" lon="10.630925830087833"><ele>1031.0</ele><time>2026-03-22T10:52:43.998Z</time></trkpt><trkpt lat="44.254325967791026" lon="10.630852880548924"><ele>1031.0</ele><time>2026-03-22T10:52:44.998Z</time></trkpt><trkpt lat="44.254399593725104" lon="10.630818990764377"><ele>1031.0</ele><time>2026-03-22T10:52:45.998Z</time></trkpt><trkpt lat="44.25445522092639" lon="10.63076799082374"><ele>1031.0</ele><time>2026-03-22T10:52:47Z</time></trkpt><trkpt lat="44.254520900049975" lon="10.630677518463795"><ele>1031.0</ele><time>2026-03-22T10:52:49Z</time></trkpt><trkpt lat="44.25456593569763" lon="10.630591147892753"><ele>1031.0</ele><time>2026-03-22T10:52:51Z</time></trkpt><trkpt lat="44.25450626916513" lon="10.630708796749161"><ele>1031.0</ele><time>2026-03-22T10:53:18.999Z</time></trkpt><trkpt lat="44.254398726186466" lon="10.630618372341246"><ele>1031.0</ele><time>2026-03-22T10:53:19.999Z</time></trkpt><trkpt lat="44.254325379640406" lon="10.630674517747364"><ele>1031.0</ele><time>2026-03-22T10:53:20.999Z</time></trkpt><trkpt lat="44.254251574035" lon="10.63071341370394"><ele>1031.0</ele><time>2026-03-22T10:53:21.999Z</time></trkpt><trkpt lat="44.25409631815959" lon="10.630763084892187"><ele>1031.0</ele><time>2026-03-22T10:53:22.999Z</time></trkpt><trkpt lat="44.254007864479846" lon="10.63091810765957"><ele>1031.0</ele><time>2026-03-22T10:53:23.999Z</time></trkpt><trkpt lat="44.253955332107004" lon="10.631051762861691"><ele>1031.0</ele><time>2026-03-22T10:53:24.999Z</time></trkpt><trkpt lat="44.253906470633524" lon="10.631177025030622"><ele>1031.0</ele><time>2026-03-22T10:53:25.999Z</time></trkpt><trkpt lat="44.253780684007566" lon="10.63150930450751"><ele>1024.5</ele><time>2026-03-22T10:53:26.999Z</time></trkpt><trkpt lat="44.25376916670713" lon="10.631750223538866"><ele>1018.0</ele><time>2026-03-22T10:53:27.999Z</time></trkpt><trkpt lat="44.25376569969003" lon="10.631925745226207"><ele>1011.5</ele><time>2026-03-22T10:53:28.999Z</time></trkpt><trkpt lat="44.25376280805491" lon="10.632072137427716"><ele>1005.0</ele><time>2026-03-22T10:53:29.999Z</time></trkpt><trkpt lat="44.253760157560144" lon="10.632206321792054"><ele>1002.0</ele><time>2026-03-22T10:53:30.999Z</time></trkpt><trkpt lat="44.25377396352155" lon="10.632328349174925"><ele>999.0</ele><time>2026-03-22T10:53:31.999Z</time></trkpt><trkpt lat="44.25452795577969" lon="10.632485927150158"><ele>1007.75</ele><time>2026-03-22T10:53:32.999Z</time></trkpt><trkpt lat="44.25464514725269" lon="10.632617356331494"><ele>1016.5</ele><time>2026-03-22T10:53:33.999Z</time></trkpt><trkpt lat="44.254742069289904" lon="10.63276729678417"><ele>1025.25</ele><time>2026-03-22T10:53:34.999Z</time></trkpt><trkpt lat="44.25482249940511" lon="10.63294354323855"><ele>1034.0</ele><time>2026-03-22T10:53:35.999Z</time></trkpt><trkpt lat="44.254886693294786" lon="10.633141502681122"><ele>1038.3333333333335</ele><time>2026-03-22T10:53:36.999Z</time></trkpt><trkpt lat="44.25494500603809" lon="10.633342933860781"><ele>1042.6666666666667</ele><time>2026-03-22T10:53:37.999Z</time></trkpt><trkpt lat="44.255007307029885" lon="10.633541905599552"><ele>1047.0</ele><time>2026-03-22T10:53:38.999Z</time></trkpt><trkpt lat="44.25507248750834" lon="10.633744835703457"><ele>1047.0</ele><time>2026-03-22T10:53:39.999Z</time></trkpt><trkpt lat="44.25514131042222" lon="10.633946306184233"><ele>1047.0</ele><time>2026-03-22T10:53:40.999Z</time></trkpt><trkpt lat="44.255210529634624" lon="10.63414076774097"><ele>1047.0</ele><time>2026-03-22T10:53:41.999Z</time></trkpt><trkpt lat="44.25527845623521" lon="10.634312750592578"><ele>1047.0</ele><time>2026-03-22T10:53:42.999Z</time></trkpt><trkpt lat="44.2553481715856" lon="10.634464069555701"><ele>1047.0</ele><time>2026-03-22T10:53:43.999Z</time></trkpt><trkpt lat="44.25541220191318" lon="10.63459181786615"><ele>1047.0</ele><time>2026-03-22T10:53:44.999Z</time></trkpt><trkpt lat="44.255472701267934" lon="10.6346974150571"><ele>1047.0</ele><time>2026-03-22T10:53:45.999Z</time></trkpt><trkpt lat="44.25553551688421" lon="10.63476668507216"><ele>1047.0</ele><time>2026-03-22T10:53:46.999Z</time></trkpt><trkpt lat="44.255601989164866" lon="10.6347906527853"><ele>1050.1666666666667</ele><time>2026-03-22T10:53:47.999Z</time></trkpt><trkpt lat="44.25567384292723" lon="10.634779301553282"><ele>1053.3333333333333</ele><time>2026-03-22T10:53:48.999Z</time></trkpt><trkpt lat="44.255753997528345" lon="10.634731741473972"><ele>1056.5</ele><time>2026-03-22T10:53:49.999Z</time></trkpt><trkpt lat="44.255836243063996" lon="10.63468098244885"><ele>1059.6666666666665</ele><time>2026-03-22T10:53:50.999Z</time></trkpt><trkpt lat="44.255926758983094" lon="10.634649918918969"><ele>1062.8333333333333</ele><time>2026-03-22T10:53:51.999Z</time></trkpt><trkpt lat="44.256010314486616" lon="10.634635205805923"><ele>1066.0</ele><time>2026-03-22T10:53:52.999Z</time></trkpt><trkpt lat="44.25609506061911" lon="10.63464355794361"><ele>1066.0</ele><time>2026-03-22T10:53:53.999Z</time></trkpt><trkpt lat="44.256167764232075" lon="10.634661996205532"><ele>1066.0</ele><time>2026-03-22T10:53:54.999Z</time></trkpt><trkpt lat="44.25623857259981" lon="10.634768169932919"><ele>1066.0</ele><time>2026-03-22T10:53:56.999Z</time></trkpt><trkpt lat="44.25626072147657" lon="10.63491021482302"><ele>1066.0</ele><time>2026-03-22T10:53:58.999Z</time></trkpt><trkpt lat="44.25634085202166" lon="10.634904074779179"><ele>1066.0</ele><time>2026-03-22T10:54:00.999Z</time></trkpt><trkpt lat="44.25642729253438" lon="10.634782430006958"><ele>1066.0</ele><time>2026-03-22T10:54:02.999Z</time></trkpt><trkpt lat="44.256482975518736" lon="10.634658400213329"><ele>1066.0</ele><time>2026-03-22T10:54:04.999Z</time></trkpt><trkpt lat="44.25643281987128" lon="10.634588392942696"><ele>1066.0</ele><time>2026-03-22T10:54:05.999Z</time></trkpt><trkpt lat="44.256376588657766" lon="10.634534098199754"><ele>1066.0</ele><time>2026-03-22T10:54:06.999Z</time></trkpt><trkpt lat="44.25628590535552" lon="10.634504574512677"><ele>1066.0</ele><time>2026-03-22T10:54:07.998Z</time></trkpt><trkpt lat="44.25617705632319" lon="10.634473443872919"><ele>1066.0</ele><time>2026-03-22T10:54:08.998Z</time></trkpt><trkpt lat="44.25607234633942" lon="10.634454025395927"><ele>1068.6666666666665</ele><time>2026-03-22T10:54:09.998Z</time></trkpt><trkpt lat="44.25598095028164" lon="10.634432227959712"><ele>1071.3333333333333</ele><time>2026-03-22T10:54:10.998Z</time></trkpt><trkpt lat="44.255908772521245" lon="10.634397219670968"><ele>1074.0</ele><time>2026-03-22T10:54:11.998Z</time></trkpt><trkpt lat="44.2558489276409" lon="10.634346467670634"><ele>1076.6666666666667</ele><time>2026-03-22T10:54:12.998Z</time></trkpt><trkpt lat="44.25581193438611" lon="10.634267371746297"><ele>1079.3333333333335</ele><time>2026-03-22T10:54:13.998Z</time></trkpt><trkpt lat="44.25580128529929" lon="10.634166689669366"><ele>1082.0</ele><time>2026-03-22T10:54:14.998Z</time></trkpt><trkpt lat="44.25581565243669" lon="10.634042832578345"><ele>1082.0</ele><time>2026-03-22T10:54:15.998Z</time></trkpt><trkpt lat="44.255835749858775" lon="10.633897819404742"><ele>1082.0</ele><time>2026-03-22T10:54:16.998Z</time></trkpt><trkpt lat="44.255853847247316" lon="10.633737232367775"><ele>1082.0</ele><time>2026-03-22T10:54:17.998Z</time></trkpt><trkpt lat="44.25586463618603" lon="10.63356635207381"><ele>1082.0</ele><time>2026-03-22T10:54:18.998Z</time></trkpt><trkpt lat="44.25586230069111" lon="10.633383205234917"><ele>1084.25</ele><time>2026-03-22T10:54:19.998Z</time></trkpt><trkpt lat="44.255852178550974" lon="10.63317764588445"><ele>1086.5</ele><time>2026-03-22T10:54:20.998Z</time></trkpt><trkpt lat="44.25583453846918" lon="10.632964192207181"><ele>1088.75</ele><time>2026-03-22T10:54:21.998Z</time></trkpt><trkpt lat="44.255814671667515" lon="10.632762877595637"><ele>1091.0</ele><time>2026-03-22T10:54:22.998Z</time></trkpt><trkpt lat="44.25580027244935" lon="10.63257534481516"><ele>1092.0</ele><time>2026-03-22T10:54:23.998Z</time></trkpt><trkpt lat="44.25578834169634" lon="10.632380432780808"><ele>1093.0</ele><time>2026-03-22T10:54:24.998Z</time></trkpt><trkpt lat="44.25578342841961" lon="10.632216580368532"><ele>1094.0</ele><time>2026-03-22T10:54:25.998Z</time></trkpt><trkpt lat="44.255788346103714" lon="10.632074064983536"><ele>1095.0</ele><time>2026-03-22T10:54:26.998Z</time></trkpt><trkpt lat="44.25581382403974" lon="10.63194843689494"><ele>1095.5</ele><time>2026-03-22T10:54:27.998Z</time></trkpt><trkpt lat="44.25587014072402" lon="10.631825992127538"><ele>1096.0</ele><time>2026-03-22T10:54:28.998Z</time></trkpt><trkpt lat="44.25595387039432" lon="10.631709500119323"><ele>1096.5</ele><time>2026-03-22T10:54:29.998Z</time></trkpt><trkpt lat="44.2560545262488" lon="10.631608341378463"><ele>1097.0</ele><time>2026-03-22T10:54:30.998Z</time></trkpt><trkpt lat="44.256154294512875" lon="10.631522961995213"><ele>1097.0</ele><time>2026-03-22T10:54:31.998Z</time></trkpt><trkpt lat="44.25625622654799" lon="10.631502121709783"><ele>1097.0</ele><time>2026-03-22T10:54:32.998Z</time></trkpt><trkpt lat="44.256351054911455" lon="10.631479935045029"><ele>1097.0</ele><time>2026-03-22T10:54:33.998Z</time></trkpt><trkpt lat="44.25643569201309" lon="10.63144305234604"><ele>1097.0</ele><time>2026-03-22T10:54:34.998Z</time></trkpt><trkpt lat="44.25653702445707" lon="10.631314697264234"><ele>1097.0</ele><time>2026-03-22T10:54:36.998Z</time></trkpt><trkpt lat="44.256501789788445" lon="10.631138188832018"><ele>1095.0</ele><time>2026-03-22T10:54:37.998Z</time></trkpt><trkpt lat="44.2564871454768" lon="10.631001347149333"><ele>1093.0</ele><time>2026-03-22T10:54:38.998Z</time></trkpt><trkpt lat="44.25644716648246" lon="10.63084736538994"><ele>1091.0</ele><time>2026-03-22T10:54:39.998Z</time></trkpt><trkpt lat="44.25641819904289" lon="10.630666448513177"><ele>1089.0</ele><time>2026-03-22T10:54:40.998Z</time></trkpt><trkpt lat="44.25636904070708" lon="10.630504309890133"><ele>1090.25</ele><time>2026-03-22T10:54:41.998Z</time></trkpt><trkpt lat="44.25633904213434" lon="10.630306354304848"><ele>1091.5</ele><time>2026-03-22T10:54:42.998Z</time></trkpt><trkpt lat="44.25631657613369" lon="10.630098241804241"><ele>1092.75</ele><time>2026-03-22T10:54:43.998Z</time></trkpt><trkpt lat="44.25629300990248" lon="10.629889531049905"><ele>1094.0</ele><time>2026-03-22T10:54:44.998Z</time></trkpt><trkpt lat="44.256244061940606" lon="10.629732997431976"><ele>1094.0</ele><time>2026-03-22T10:54:45.998Z</time></trkpt><trkpt lat="44.25622561023285" lon="10.629587438894612"><ele>1094.0</ele><time>2026-03-22T10:54:46.998Z</time></trkpt><trkpt lat="44.25620258318982" lon="10.629465630027916"><ele>1094.0</ele><time>2026-03-22T10:54:47.998Z</time></trkpt><trkpt lat="44.25620354779213" lon="10.629353908611286"><ele>1094.0</ele><time>2026-03-22T10:54:48.998Z</time></trkpt><trkpt lat="44.25622497838499" lon="10.629242975512653"><ele>1094.0</ele><time>2026-03-22T10:54:49.998Z</time></trkpt><trkpt lat="44.25629757242689" lon="10.629149485697617"><ele>1095.5</ele><time>2026-03-22T10:54:50.998Z</time></trkpt><trkpt lat="44.25638058091038" lon="10.629053310991447"><ele>1097.0</ele><time>2026-03-22T10:54:51.998Z</time></trkpt><trkpt lat="44.25647861647326" lon="10.628945828734754"><ele>1098.5</ele><time>2026-03-22T10:54:53Z</time></trkpt><trkpt lat="44.25658571552853" lon="10.628826751100632"><ele>1100.0</ele><time>2026-03-22T10:54:54Z</time></trkpt><trkpt lat="44.256682871210316" lon="10.628705333321419"><ele>1108.5</ele><time>2026-03-22T10:54:55Z</time></trkpt><trkpt lat="44.256766013745775" lon="10.628576718537747"><ele>1117.0</ele><time>2026-03-22T10:54:56Z</time></trkpt><trkpt lat="44.25686018768356" lon="10.628457283094392"><ele>1125.5</ele><time>2026-03-22T10:54:57Z</time></trkpt><trkpt lat="44.25693485641256" lon="10.628362372104329"><ele>1134.0</ele><time>2026-03-22T10:54:58Z</time></trkpt><trkpt lat="44.25700725681843" lon="10.628268390419171"><ele>1134.0</ele><time>2026-03-22T10:55:00Z</time></trkpt><trkpt lat="44.256962172160776" lon="10.628108120688264"><ele>1134.0</ele><time>2026-03-22T10:55:02Z</time></trkpt><trkpt lat="44.25690409631821" lon="10.628033023384544"><ele>1134.0</ele><time>2026-03-22T10:55:03Z</time></trkpt><trkpt lat="44.256806262562705" lon="10.628005643248601"><ele>1134.0</ele><time>2026-03-22T10:55:04Z</time></trkpt><trkpt lat="44.25668772189537" lon="10.628000768964366"><ele>1134.0</ele><time>2026-03-22T10:55:05Z</time></trkpt><trkpt lat="44.256558861403235" lon="10.628012417673242"><ele>1129.6000000000001</ele><time>2026-03-22T10:55:06Z</time></trkpt><trkpt lat="44.25643334788878" lon="10.627995605563678"><ele>1125.2</ele><time>2026-03-22T10:55:07Z</time></trkpt><trkpt lat="44.25632137836218" lon="10.62801614237914"><ele>1120.8000000000002</ele><time>2026-03-22T10:55:08Z</time></trkpt><trkpt lat="44.25621934272604" lon="10.62802382118842"><ele>1116.4</ele><time>2026-03-22T10:55:09Z</time></trkpt><trkpt lat="44.25612298347882" lon="10.62800074846844"><ele>1112.0</ele><time>2026-03-22T10:55:10Z</time></trkpt><trkpt lat="44.25604116732403" lon="10.627951744867659"><ele>1112.0</ele><time>2026-03-22T10:55:11Z</time></trkpt><trkpt lat="44.25596502247498" lon="10.627870308861581"><ele>1112.0</ele><time>2026-03-22T10:55:11.999Z</time></trkpt><trkpt lat="44.25589580021512" lon="10.627752190039434"><ele>1112.0</ele><time>2026-03-22T10:55:12.999Z</time></trkpt><trkpt lat="44.25583034678957" lon="10.627589146056462"><ele>1112.0</ele><time>2026-03-22T10:55:13.999Z</time></trkpt><trkpt lat="44.25576402514007" lon="10.627412770179433"><ele>1116.0</ele><time>2026-03-22T10:55:14.999Z</time></trkpt><trkpt lat="44.25569139434733" lon="10.627247318895645"><ele>1120.0</ele><time>2026-03-22T10:55:15.999Z</time></trkpt><trkpt lat="44.255630306439194" lon="10.627104490145305"><ele>1124.0</ele><time>2026-03-22T10:55:16.999Z</time></trkpt><trkpt lat="44.25559017470948" lon="10.626949531083298"><ele>1128.0</ele><time>2026-03-22T10:55:17.999Z</time></trkpt><trkpt lat="44.2555694304066" lon="10.626769801414165"><ele>1119.75</ele><time>2026-03-22T10:55:18.999Z</time></trkpt><trkpt lat="44.25555245471608" lon="10.626569478830575"><ele>1111.5</ele><time>2026-03-22T10:55:19.999Z</time></trkpt><trkpt lat="44.25553273606933" lon="10.626366612712099"><ele>1103.25</ele><time>2026-03-22T10:55:20.999Z</time></trkpt><trkpt lat="44.25551500518601" lon="10.626185101099637"><ele>1095.0</ele><time>2026-03-22T10:55:21.999Z</time></trkpt><trkpt lat="44.25549993849586" lon="10.626022424436739"><ele>1095.0</ele><time>2026-03-22T10:55:22.999Z</time></trkpt><trkpt lat="44.255495773100805" lon="10.625886944137104"><ele>1095.0</ele><time>2026-03-22T10:55:23.999Z</time></trkpt><trkpt lat="44.25550779634358" lon="10.625770208519969"><ele>1095.0</ele><time>2026-03-22T10:55:24.999Z</time></trkpt><trkpt lat="44.25554839700265" lon="10.625658107019264"><ele>1095.0</ele><time>2026-03-22T10:55:25.999Z</time></trkpt><trkpt lat="44.255610851262894" lon="10.625564104348534"><ele>1095.0</ele><time>2026-03-22T10:55:26.999Z</time></trkpt><trkpt lat="44.25570078260909" lon="10.62556787067726"><ele>1100.5</ele><time>2026-03-22T10:55:27.999Z</time></trkpt><trkpt lat="44.25579337904662" lon="10.625542262570175"><ele>1106.0</ele><time>2026-03-22T10:55:28.999Z</time></trkpt><trkpt lat="44.25586658573616" lon="10.62551438286208"><ele>1111.5</ele><time>2026-03-22T10:55:29.999Z</time></trkpt><trkpt lat="44.25592340128905" lon="10.625475154171616"><ele>1117.0</ele><time>2026-03-22T10:55:30.999Z</time></trkpt><trkpt lat="44.255958160152694" lon="10.625398843398386"><ele>1122.5</ele><time>2026-03-22T10:55:31.999Z</time></trkpt><trkpt lat="44.25595534740424" lon="10.62529459018223"><ele>1128.0</ele><time>2026-03-22T10:55:32.999Z</time></trkpt><trkpt lat="44.2559173371504" lon="10.625187796495592"><ele>1128.0</ele><time>2026-03-22T10:55:33.999Z</time></trkpt><trkpt lat="44.255846903741755" lon="10.625080628357804"><ele>1128.0</ele><time>2026-03-22T10:55:34.999Z</time></trkpt><trkpt lat="44.25580242870355" lon="10.624987497153612"><ele>1128.0</ele><time>2026-03-22T10:55:35.999Z</time></trkpt><trkpt lat="44.25582399907795" lon="10.62481363632006"><ele>1128.0</ele><time>2026-03-22T10:55:37.999Z</time></trkpt><trkpt lat="44.255901496146386" lon="10.624739870473928"><ele>1128.0</ele><time>2026-03-22T10:55:38.999Z</time></trkpt><trkpt lat="44.25597793215601" lon="10.624624051843684"><ele>1128.0</ele><time>2026-03-22T10:55:39.999Z</time></trkpt><trkpt lat="44.256077659395636" lon="10.624521613068069"><ele>1128.0</ele><time>2026-03-22T10:55:40.999Z</time></trkpt><trkpt lat="44.25618766741404" lon="10.624421402280575"><ele>1128.0</ele><time>2026-03-22T10:55:41.999Z</time></trkpt><trkpt lat="44.256295778862935" lon="10.624353743595936"><ele>1128.0</ele><time>2026-03-22T10:55:42.999Z</time></trkpt><trkpt lat="44.256364872762525" lon="10.624266103577206"><ele>1128.5</ele><time>2026-03-22T10:55:43.999Z</time></trkpt><trkpt lat="44.256422513670806" lon="10.624202133567103"><ele>1129.0</ele><time>2026-03-22T10:55:44.999Z</time></trkpt><trkpt lat="44.256451790635374" lon="10.624109995714868"><ele>1129.5</ele><time>2026-03-22T10:55:45.999Z</time></trkpt><trkpt lat="44.256444552945254" lon="10.623999462115135"><ele>1130.0</ele><time>2026-03-22T10:55:46.999Z</time></trkpt><trkpt lat="44.256415665135115" lon="10.623870227693528"><ele>1130.5</ele><time>2026-03-22T10:55:47.999Z</time></trkpt><trkpt lat="44.256361558238126" lon="10.623722912561014"><ele>1131.0</ele><time>2026-03-22T10:55:48.999Z</time></trkpt><trkpt lat="44.256280041494136" lon="10.623574337335462"><ele>1131.0</ele><time>2026-03-22T10:55:49.999Z</time></trkpt><trkpt lat="44.25619618961262" lon="10.623435121407402"><ele>1131.0</ele><time>2026-03-22T10:55:50.999Z</time></trkpt><trkpt lat="44.25615005462228" lon="10.623307257094423"><ele>1131.0</ele><time>2026-03-22T10:55:51.999Z</time></trkpt><trkpt lat="44.256135737372894" lon="10.623182033251533"><ele>1131.0</ele><time>2026-03-22T10:55:52.999Z</time></trkpt><trkpt lat="44.256150750734406" lon="10.62304787782205"><ele>1131.0</ele><time>2026-03-22T10:55:53.999Z</time></trkpt><trkpt lat="44.25618782158258" lon="10.622921066690894"><ele>1131.0</ele><time>2026-03-22T10:55:54.999Z</time></trkpt><trkpt lat="44.256237267864925" lon="10.622821702991985"><ele>1131.0</ele><time>2026-03-22T10:55:55.999Z</time></trkpt><trkpt lat="44.25632499414738" lon="10.62281119888332"><ele>1131.0</ele><time>2026-03-22T10:55:56.999Z</time></trkpt><trkpt lat="44.256425048952416" lon="10.622786750856704"><ele>1131.0</ele><time>2026-03-22T10:55:57.999Z</time></trkpt><trkpt lat="44.25654848973081" lon="10.622741172447817"><ele>1131.0</ele><time>2026-03-22T10:55:58.999Z</time></trkpt><trkpt lat="44.25666186710853" lon="10.62264745682857"><ele>1136.3999999999999</ele><time>2026-03-22T10:55:59.999Z</time></trkpt><trkpt lat="44.25676082371097" lon="10.622559247561005"><ele>1141.8</ele><time>2026-03-22T10:56:00.999Z</time></trkpt><trkpt lat="44.25682687348843" lon="10.622493993457235"><ele>1147.1999999999998</ele><time>2026-03-22T10:56:01.999Z</time></trkpt><trkpt lat="44.256892983152476" lon="10.622369889195332"><ele>1152.6</ele><time>2026-03-22T10:56:03.999Z</time></trkpt><trkpt lat="44.25687927306712" lon="10.622267674855266"><ele>1158.0</ele><time>2026-03-22T10:56:04.999Z</time></trkpt><trkpt lat="44.256831391697524" lon="10.622185280258284"><ele>1158.0</ele><time>2026-03-22T10:56:05.999Z</time></trkpt><trkpt lat="44.256734373664" lon="10.622157826734462"><ele>1158.0</ele><time>2026-03-22T10:56:06.999Z</time></trkpt><trkpt lat="44.256637044723874" lon="10.622131899594804"><ele>1158.0</ele><time>2026-03-22T10:56:07.999Z</time></trkpt><trkpt lat="44.256555709220564" lon="10.622089915862464"><ele>1158.0</ele><time>2026-03-22T10:56:08.999Z</time></trkpt><trkpt lat="44.25649068756248" lon="10.62200663105679"><ele>1158.0</ele><time>2026-03-22T10:56:09.999Z</time></trkpt><trkpt lat="44.256445466444454" lon="10.621867166118196"><ele>1156.25</ele><time>2026-03-22T10:56:10.998Z</time></trkpt><trkpt lat="44.256400813717846" lon="10.621715668108605"><ele>1154.5</ele><time>2026-03-22T10:56:11.998Z</time></trkpt><trkpt lat="44.25632706286443" lon="10.62158952643393"><ele>1152.75</ele><time>2026-03-22T10:56:12.998Z</time></trkpt><trkpt lat="44.25621898671411" lon="10.621487419099955"><ele>1151.0</ele><time>2026-03-22T10:56:13.998Z</time></trkpt><trkpt lat="44.25610637680385" lon="10.621392205690084"><ele>1151.0</ele><time>2026-03-22T10:56:14.998Z</time></trkpt><trkpt lat="44.25602225797997" lon="10.621301743124333"><ele>1151.0</ele><time>2026-03-22T10:56:15.998Z</time></trkpt><trkpt lat="44.25595259363672" lon="10.621180954524087"><ele>1151.0</ele><time>2026-03-22T10:56:16.998Z</time></trkpt><trkpt lat="44.255893408120315" lon="10.62103141389848"><ele>1151.0</ele><time>2026-03-22T10:56:17.998Z</time></trkpt><trkpt lat="44.25584985266397" lon="10.620862380291436"><ele>1154.8</ele><time>2026-03-22T10:56:18.998Z</time></trkpt><trkpt lat="44.25581123232366" lon="10.620709551325254"><ele>1158.6</ele><time>2026-03-22T10:56:19.998Z</time></trkpt><trkpt lat="44.255778235029155" lon="10.620608731963582"><ele>1162.4</ele><time>2026-03-22T10:56:20.998Z</time></trkpt><trkpt lat="44.255760196342514" lon="10.620461617078368"><ele>1166.2</ele><time>2026-03-22T10:56:22.998Z</time></trkpt><trkpt lat="44.25587278493156" lon="10.620369988730976"><ele>1170.0</ele><time>2026-03-22T10:56:24.998Z</time></trkpt><trkpt lat="44.25594238701818" lon="10.620455707720367"><ele>1170.0</ele><time>2026-03-22T10:56:25.998Z</time></trkpt><trkpt lat="44.25602940582832" lon="10.620509790886812"><ele>1170.0</ele><time>2026-03-22T10:56:26.998Z</time></trkpt><trkpt lat="44.25612598398666" lon="10.620555643511706"><ele>1170.0</ele><time>2026-03-22T10:56:27.998Z</time></trkpt><trkpt lat="44.25620761011746" lon="10.620567609970058"><ele>1170.0</ele><time>2026-03-22T10:56:28.998Z</time></trkpt><trkpt lat="44.25628001423453" lon="10.62054166868709"><ele>1170.0</ele><time>2026-03-22T10:56:29.998Z</time></trkpt><trkpt lat="44.256338122097624" lon="10.620486340949414"><ele>1170.0</ele><time>2026-03-22T10:56:30.998Z</time></trkpt><trkpt lat="44.256357176033006" lon="10.620387252441557"><ele>1173.4</ele><time>2026-03-22T10:56:31.998Z</time></trkpt><trkpt lat="44.25631329829398" lon="10.62029199489444"><ele>1176.8</ele><time>2026-03-22T10:56:32.998Z</time></trkpt><trkpt lat="44.256243308149834" lon="10.620240952780133"><ele>1180.2</ele><time>2026-03-22T10:56:33.998Z</time></trkpt><trkpt lat="44.25614420340622" lon="10.620230061022697"><ele>1183.6</ele><time>2026-03-22T10:56:34.998Z</time></trkpt><trkpt lat="44.25604379748365" lon="10.620209119319032"><ele>1187.0</ele><time>2026-03-22T10:56:35.998Z</time></trkpt><trkpt lat="44.25595075393818" lon="10.620124657868608"><ele>1187.0</ele><time>2026-03-22T10:56:36.998Z</time></trkpt><trkpt lat="44.255866921631885" lon="10.619995817499301"><ele>1187.0</ele><time>2026-03-22T10:56:37.998Z</time></trkpt><trkpt lat="44.25579714206217" lon="10.619869520528818"><ele>1187.0</ele><time>2026-03-22T10:56:38.998Z</time></trkpt><trkpt lat="44.25574477704935" lon="10.619749338704853"><ele>1187.0</ele><time>2026-03-22T10:56:39.998Z</time></trkpt><trkpt lat="44.255713900948464" lon="10.619628320888673"><ele>1187.0</ele><time>2026-03-22T10:56:40.998Z</time></trkpt><trkpt lat="44.25570832653905" lon="10.619500649975135"><ele>1190.5</ele><time>2026-03-22T10:56:41.998Z</time></trkpt><trkpt lat="44.255726931912754" lon="10.619371392075992"><ele>1194.0</ele><time>2026-03-22T10:56:42.998Z</time></trkpt><trkpt lat="44.25576820112164" lon="10.619263007968302"><ele>1197.5</ele><time>2026-03-22T10:56:43.998Z</time></trkpt><trkpt lat="44.25582987855007" lon="10.619186620828604"><ele>1201.0</ele><time>2026-03-22T10:56:44.998Z</time></trkpt><trkpt lat="44.255916043914915" lon="10.619199326921303"><ele>1204.5</ele><time>2026-03-22T10:56:45.998Z</time></trkpt><trkpt lat="44.256004755698946" lon="10.61921270446806"><ele>1208.0</ele><time>2026-03-22T10:56:46.998Z</time></trkpt><trkpt lat="44.25609497711692" lon="10.619244915581705"><ele>1208.0</ele><time>2026-03-22T10:56:47.998Z</time></trkpt><trkpt lat="44.25614568713259" lon="10.619319311120247"><ele>1208.0</ele><time>2026-03-22T10:56:48.998Z</time></trkpt><trkpt lat="44.25616568676453" lon="10.619418901395099"><ele>1208.0</ele><time>2026-03-22T10:56:49.998Z</time></trkpt><trkpt lat="44.25613541717532" lon="10.619528699275694"><ele>1208.0</ele><time>2026-03-22T10:56:50.998Z</time></trkpt><trkpt lat="44.25614329545088" lon="10.619630399001352"><ele>1208.0</ele><time>2026-03-22T10:56:51.998Z</time></trkpt><trkpt lat="44.25616306413589" lon="10.619722745601955"><ele>1208.0</ele><time>2026-03-22T10:56:52.998Z</time></trkpt><trkpt lat="44.25625867701225" lon="10.619803292766104"><ele>1205.75</ele><time>2026-03-22T10:56:53.998Z</time></trkpt><trkpt lat="44.25637677115612" lon="10.619755234022826"><ele>1203.5</ele><time>2026-03-22T10:56:54.998Z</time></trkpt><trkpt lat="44.256489748049916" lon="10.619694712929151"><ele>1201.25</ele><time>2026-03-22T10:56:55.998Z</time></trkpt><trkpt lat="44.256615002791754" lon="10.619587959912645"><ele>1199.0</ele><time>2026-03-22T10:56:56.998Z</time></trkpt><trkpt lat="44.25673416690358" lon="10.619458558922183"><ele>1204.25</ele><time>2026-03-22T10:56:57.998Z</time></trkpt><trkpt lat="44.25683977072832" lon="10.619373027371335"><ele>1209.5</ele><time>2026-03-22T10:56:59Z</time></trkpt><trkpt lat="44.25693375841843" lon="10.619325974958905"><ele>1214.75</ele><time>2026-03-22T10:57:00Z</time></trkpt><trkpt lat="44.25704561186766" lon="10.61933438390856"><ele>1220.0</ele><time>2026-03-22T10:57:00.999Z</time></trkpt><trkpt lat="44.257168529973384" lon="10.619347124765923"><ele>1221.75</ele><time>2026-03-22T10:57:02Z</time></trkpt><trkpt lat="44.25729833885771" lon="10.619361003506173"><ele>1223.5</ele><time>2026-03-22T10:57:03Z</time></trkpt><trkpt lat="44.25744010267577" lon="10.619376160428201"><ele>1225.25</ele><time>2026-03-22T10:57:03.999Z</time></trkpt><trkpt lat="44.25759132623208" lon="10.619390010397936"><ele>1227.0</ele><time>2026-03-22T10:57:05Z</time></trkpt><trkpt lat="44.25774550676076" lon="10.619396951691598"><ele>1227.0</ele><time>2026-03-22T10:57:06Z</time></trkpt><trkpt lat="44.257899657620776" lon="10.619400461600469"><ele>1227.0</ele><time>2026-03-22T10:57:06.999Z</time></trkpt><trkpt lat="44.258031622529224" lon="10.619400461594843"><ele>1227.0</ele><time>2026-03-22T10:57:07.999Z</time></trkpt><trkpt lat="44.25814402277247" lon="10.619403393744857"><ele>1227.0</ele><time>2026-03-22T10:57:08.999Z</time></trkpt><trkpt lat="44.258223477086695" lon="10.619420701781536"><ele>1227.0</ele><time>2026-03-22T10:57:09.999Z</time></trkpt><trkpt lat="44.258297903223024" lon="10.619473206074883"><ele>1227.0</ele><time>2026-03-22T10:57:10.999Z</time></trkpt><trkpt lat="44.25834957180188" lon="10.619563345777937"><ele>1227.0</ele><time>2026-03-22T10:57:11.999Z</time></trkpt><trkpt lat="44.25839706328701" lon="10.619679149609876"><ele>1227.0</ele><time>2026-03-22T10:57:12.999Z</time></trkpt><trkpt lat="44.25843940004352" lon="10.619809419007467"><ele>1227.0</ele><time>2026-03-22T10:57:13.999Z</time></trkpt><trkpt lat="44.258483557466896" lon="10.619959413833543"><ele>1227.0</ele><time>2026-03-22T10:57:14.999Z</time></trkpt><trkpt lat="44.25853066280312" lon="10.620126386613281"><ele>1227.0</ele><time>2026-03-22T10:57:15.999Z</time></trkpt><trkpt lat="44.258574500898646" lon="10.620276709554993"><ele>1227.0</ele><time>2026-03-22T10:57:16.999Z</time></trkpt><trkpt lat="44.25861341612615" lon="10.620402594822014"><ele>1227.0</ele><time>2026-03-22T10:57:17.999Z</time></trkpt><trkpt lat="44.25864794840041" lon="10.620506665086996"><ele>1227.0</ele><time>2026-03-22T10:57:18.999Z</time></trkpt><trkpt lat="44.25869289343664" lon="10.620597667094577"><ele>1226.2</ele><time>2026-03-22T10:57:19.999Z</time></trkpt><trkpt lat="44.258753126816366" lon="10.620660889551377"><ele>1225.4</ele><time>2026-03-22T10:57:20.999Z</time></trkpt><trkpt lat="44.25887060004109" lon="10.620608500561188"><ele>1224.6</ele><time>2026-03-22T10:57:21.999Z</time></trkpt><trkpt lat="44.258925515951255" lon="10.620481549727348"><ele>1223.8</ele><time>2026-03-22T10:57:22.999Z</time></trkpt><trkpt lat="44.258939072787356" lon="10.620358109997621"><ele>1223.0</ele><time>2026-03-22T10:57:23.999Z</time></trkpt><trkpt lat="44.25895865434904" lon="10.620251969348338"><ele>1225.5</ele><time>2026-03-22T10:57:24.999Z</time></trkpt><trkpt lat="44.25901925196714" lon="10.620215985524132"><ele>1228.0</ele><time>2026-03-22T10:57:26.999Z</time></trkpt><trkpt lat="44.259076911104636" lon="10.620252528477764"><ele>1230.5</ele><time>2026-03-22T10:57:27.999Z</time></trkpt><trkpt lat="44.25909430156101" lon="10.620361501212773"><ele>1233.0</ele><time>2026-03-22T10:57:28.999Z</time></trkpt><trkpt lat="44.25908028413236" lon="10.620484873975004"><ele>1235.5</ele><time>2026-03-22T10:57:29.999Z</time></trkpt><trkpt lat="44.2590521545859" lon="10.620603569674605"><ele>1238.0</ele><time>2026-03-22T10:57:30.999Z</time></trkpt><trkpt lat="44.2590353460734" lon="10.620697235672067"><ele>1238.0</ele><time>2026-03-22T10:57:31.999Z</time></trkpt><trkpt lat="44.25904726971938" lon="10.620795640872384"><ele>1238.0</ele><time>2026-03-22T10:57:32.999Z</time></trkpt><trkpt lat="44.25913001187489" lon="10.620863236441474"><ele>1238.0</ele><time>2026-03-22T10:57:33.999Z</time></trkpt><trkpt lat="44.2592238595651" lon="10.620826445585305"><ele>1238.0</ele><time>2026-03-22T10:57:34.999Z</time></trkpt><trkpt lat="44.25928135856909" lon="10.620687540296094"><ele>1238.0</ele><time>2026-03-22T10:57:35.999Z</time></trkpt><trkpt lat="44.25927779991801" lon="10.620526368579194"><ele>1238.0</ele><time>2026-03-22T10:57:36.999Z</time></trkpt><trkpt lat="44.25926698423196" lon="10.62037096077344"><ele>1238.0</ele><time>2026-03-22T10:57:37.999Z</time></trkpt><trkpt lat="44.25928789719402" lon="10.620264733889663"><ele>1238.0</ele><time>2026-03-22T10:57:38.999Z</time></trkpt><trkpt lat="44.259326282422286" lon="10.620144296990206"><ele>1238.0</ele><time>2026-03-22T10:57:40.999Z</time></trkpt><trkpt lat="44.2594241363768" lon="10.620196900969567"><ele>1238.0</ele><time>2026-03-22T10:57:42.999Z</time></trkpt><trkpt lat="44.25942042266158" lon="10.62029623978718"><ele>1238.0</ele><time>2026-03-22T10:57:43.999Z</time></trkpt><trkpt lat="44.25940610912453" lon="10.620393378569867"><ele>1238.0</ele><time>2026-03-22T10:57:44.999Z</time></trkpt><trkpt lat="44.259399610249986" lon="10.62048246655499"><ele>1238.0</ele><time>2026-03-22T10:57:45.999Z</time></trkpt><trkpt lat="44.25948350616836" lon="10.62063681689526"><ele>1238.0</ele><time>2026-03-22T10:57:47.999Z</time></trkpt><trkpt lat="44.25955365571875" lon="10.620647073359361"><ele>1238.0</ele><time>2026-03-22T10:57:48.999Z</time></trkpt><trkpt lat="44.25962928672981" lon="10.620557091343553"><ele>1238.0</ele><time>2026-03-22T10:57:49.999Z</time></trkpt><trkpt lat="44.2596442295769" lon="10.62039260542963"><ele>1240.0</ele><time>2026-03-22T10:57:51Z</time></trkpt><trkpt lat="44.25966441025605" lon="10.620277894499116"><ele>1242.0</ele><time>2026-03-22T10:57:52Z</time></trkpt><trkpt lat="44.25974362275598" lon="10.620160960529622"><ele>1244.0</ele><time>2026-03-22T10:57:54Z</time></trkpt><trkpt lat="44.25980854925715" lon="10.62015909652553"><ele>1246.0</ele><time>2026-03-22T10:57:55Z</time></trkpt><trkpt lat="44.25992252609462" lon="10.620225867181633"><ele>1248.0</ele><time>2026-03-22T10:57:57Z</time></trkpt><trkpt lat="44.25999387963795" lon="10.620283719035887"><ele>1248.8</ele><time>2026-03-22T10:57:58Z</time></trkpt><trkpt lat="44.26008513590037" lon="10.620358442123353"><ele>1249.6</ele><time>2026-03-22T10:57:59Z</time></trkpt><trkpt lat="44.26017977148108" lon="10.62040801114859"><ele>1250.4</ele><time>2026-03-22T10:58:00Z</time></trkpt><trkpt lat="44.260265341325926" lon="10.620433430625631"><ele>1251.2</ele><time>2026-03-22T10:58:01Z</time></trkpt><trkpt lat="44.260358114844266" lon="10.620430461432306"><ele>1252.0</ele><time>2026-03-22T10:58:02Z</time></trkpt><trkpt lat="44.260455183627606" lon="10.620337348708885"><ele>1252.0</ele><time>2026-03-22T10:58:03Z</time></trkpt><trkpt lat="44.26052164597139" lon="10.620235941674814"><ele>1264.0</ele><time>2026-03-22T10:58:04Z</time></trkpt><trkpt lat="44.260567625417664" lon="10.620166190225707"><ele>1264.0</ele><time>2026-03-22T10:58:05Z</time></trkpt></trkseg></trk></gpx>